Time,TemperatureF,DewpointF,PressureIn,WindDirection,WindDirectionDegrees,WindSpeedMPH,WindSpeedGustMPH,Humidity,HourlyPrecipIn,Conditions,Clouds,dailyrainin,SoftwareType,DateUTC
2013-03-04 06:09:00,19.0,17.1,30.14,NNW,330,0.0,0.0,92,0.00,,---,0.00,VWS V14.01,2013-03-04 11:09:00,
2013-03-04 06:10:00,19.0,17.1,30.14,NNW,330,0.0,0.0,92,0.00,,---,0.00,VWS V14.01,2013-03-04 11:10:00,
2013-03-04 06:11:00,18.9,17.0,30.14,NNW,330,0.0,0.0,92,0.00,,---,0.00,VWS V14.01,2013-03-04 11:11:00,
2013-03-04 06:12:00,18.8,16.9,30.14,NNW,330,0.0,0.0,92,0.00,,---,0.00,VWS V14.01,2013-03-04 11:12:00,
2013-03-04 06:13:00,18.8,16.9,30.14,NNW,330,0.0,0.0,92,0.00,,---,0.00,VWS V14.01,2013-03-04 11:13:00,
2013-03-04 06:14:00,18.7,16.8,30.14,NNW,330,0.0,0.0,92,0.00,,---,0.00,VWS V14.01,2013-03-04 11:14:00,
2013-03-04 06:15:00,18.6,16.7,30.14,NNW,330,0.0,0.0,92,0.00,,---,0.00,VWS V14.01,2013-03-04 11:15:00,
2013-03-04 06:16:00,18.6,16.7,30.14,NNW,330,0.0,0.0,92,0.00,,---,0.00,VWS V14.01,2013-03-04 11:16:00,
2013-03-04 06:17:00,18.6,16.7,30.14,NNW,330,0.0,0.0,92,0.00,,---,0.00,VWS V14.01,2013-03-04 11:17:00,
2013-03-04 06:18:00,18.5,16.6,30.14,NNW,330,0.0,0.0,92,0.00,,---,0.00,VWS V14.01,2013-03-04 11:18:00,
2013-03-04 06:19:00,18.5,16.6,30.14,NNW,330,0.0,0.0,92,0.00,,---,0.00,VWS V14.01,2013-03-04 11:19:00,
2013-03-04 06:20:00,18.5,16.6,30.14,NNW,330,0.0,0.0,92,0.00,,---,0.00,VWS V14.01,2013-03-04 11:20:00,
2013-03-04 06:21:00,18.5,18.5,30.14,NNW,330,0.0,0.0,100,0.00,,---,0.00,VWS V14.01,2013-03-04 11:21:00,
2013-03-04 06:22:00,18.5,16.6,30.14,NNW,330,0.0,0.0,92,0.00,,---,0.00,VWS V14.01,2013-03-04 11:22:00,
2013-03-04 06:23:00,18.5,18.5,30.14,NNW,330,0.0,0.0,100,0.00,,---,0.00,VWS V14.01,2013-03-04 11:23:00,
2013-03-04 06:24:00,18.5,18.5,30.14,NNW,330,0.0,0.0,100,0.00,,---,0.00,VWS V14.01,2013-03-04 11:24:00,
2013-03-04 06:25:00,18.5,16.6,30.14,NNW,330,0.0,0.0,92,0.00,,---,0.00,VWS V14.01,2013-03-04 11:25:00,
2013-03-04 06:26:00,18.6,16.7,30.14,NNW,330,0.0,0.0,92,0.00,,---,0.00,VWS V14.01,2013-03-04 11:26:00,
2013-03-04 06:27:00,18.6,16.7,30.14,NNW,330,0.0,0.0,92,0.00,,---,0.00,VWS V14.01,2013-03-04 11:27:00,
2013-03-04 06:28:00,18.7,16.8,30.14,NNW,330,0.0,0.0,92,0.00,,---,0.00,VWS V14.01,2013-03-04 11:28:00,
2013-03-04 06:29:00,18.8,16.9,30.14,NNW,330,0.0,0.0,92,0.00,,---,0.00,VWS V14.01,2013-03-04 11:29:00,
2013-03-04 06:30:00,19.0,17.1,30.14,NNW,330,0.0,0.0,92,0.00,,---,0.00,VWS V14.01,2013-03-04 11:30:00,
2013-03-04 06:31:00,19.1,17.2,30.14,NNW,330,0.0,0.0,92,0.00,,---,0.00,VWS V14.01,2013-03-04 11:31:00,
2013-03-04 06:32:00,19.2,17.5,30.14,NNW,330,0.0,0.0,93,0.00,,---,0.00,VWS V14.01,2013-03-04 11:32:00,
2013-03-04 06:33:00,19.3,17.6,30.14,NNW,330,0.0,0.0,93,0.00,,---,0.00,VWS V14.01,2013-03-04 11:33:00,
2013-03-04 06:34:00,19.5,17.8,30.14,NNW,330,0.0,0.0,93,0.00,,---,0.00,VWS V14.01,2013-03-04 11:34:00,
2013-03-04 06:35:00,19.6,17.9,30.14,NNW,330,0.0,0.0,93,0.00,,---,0.00,VWS V14.01,2013-03-04 11:35:00,
2013-03-04 06:36:00,19.7,18.0,30.14,NNW,330,0.0,0.0,93,0.00,,---,0.00,VWS V14.01,2013-03-04 11:36:00,
2013-03-04 06:37:00,19.8,18.1,30.14,NNW,330,0.0,0.0,93,0.00,,---,0.00,VWS V14.01,2013-03-04 11:37:00,
2013-03-04 06:38:00,20.0,18.3,30.14,NNW,330,0.0,0.0,93,0.00,,---,0.00,VWS V14.01,2013-03-04 11:38:00,
2013-03-04 06:39:00,20.1,18.4,30.14,NNW,330,0.0,0.0,93,0.00,,---,0.00,VWS V14.01,2013-03-04 11:39:00,
2013-03-04 06:40:00,20.2,18.5,30.14,NNW,330,0.0,0.0,93,0.00,,---,0.00,VWS V14.01,2013-03-04 11:40:00,
2013-03-04 06:41:00,20.4,18.7,30.14,NNW,330,0.0,0.0,93,0.00,,---,0.00,VWS V14.01,2013-03-04 11:41:00,
2013-03-04 06:42:00,20.5,18.8,30.14,NNW,330,0.0,0.0,93,0.00,,---,0.00,VWS V14.01,2013-03-04 11:42:00,
2013-03-04 06:43:00,20.6,18.9,30.14,NNW,330,0.0,0.0,93,0.00,,---,0.00,VWS V14.01,2013-03-04 11:43:00,
2013-03-04 06:44:00,20.7,18.8,30.14,NNW,330,0.0,0.0,92,0.00,,---,0.00,VWS V14.01,2013-03-04 11:44:00,
2013-03-04 06:45:00,20.8,19.1,30.14,NNW,330,0.0,0.0,93,0.00,,---,0.00,VWS V14.01,2013-03-04 11:45:00,
2013-03-04 06:46:00,21.0,19.3,30.14,NNW,330,0.0,0.0,93,0.00,,---,0.00,VWS V14.01,2013-03-04 11:46:00,
2013-03-04 06:47:00,21.1,19.1,30.14,NNW,330,0.0,0.0,92,0.00,,---,0.00,VWS V14.01,2013-03-04 11:47:00,
2013-03-04 06:48:00,21.2,19.2,30.14,NNW,330,0.0,0.0,92,0.00,,---,0.00,VWS V14.01,2013-03-04 11:48:00,
2013-03-04 06:49:00,21.3,19.3,30.14,NNW,330,0.0,0.0,92,0.00,,---,0.00,VWS V14.01,2013-03-04 11:49:00,
2013-03-04 06:50:00,21.4,19.4,30.14,NNW,330,0.0,0.0,92,0.00,,---,0.00,VWS V14.01,2013-03-04 11:50:00,
2013-03-04 06:51:00,21.5,19.5,30.14,NNW,330,0.0,0.0,92,0.00,,---,0.00,VWS V14.01,2013-03-04 11:51:00,
2013-03-04 06:52:00,21.6,19.6,30.14,NNW,330,0.0,0.0,92,0.00,,---,0.00,VWS V14.01,2013-03-04 11:52:00,
2013-03-04 06:53:00,21.6,19.6,30.14,NNW,330,0.0,0.0,92,0.00,,---,0.00,VWS V14.01,2013-03-04 11:53:00,
2013-03-04 06:54:00,21.7,19.5,30.14,NNW,330,0.0,0.0,91,0.00,,---,0.00,VWS V14.01,2013-03-04 11:54:00,
2013-03-04 06:55:00,21.7,19.5,30.14,NNW,330,0.0,0.0,91,0.00,,---,0.00,VWS V14.01,2013-03-04 11:55:00,
2013-03-04 06:56:00,21.8,19.6,30.14,NNW,330,0.0,0.0,91,0.00,,---,0.00,VWS V14.01,2013-03-04 11:56:00,
2013-03-04 06:57:00,21.8,19.6,30.14,NNW,330,0.0,0.0,91,0.00,,---,0.00,VWS V14.01,2013-03-04 11:57:00,
2013-03-04 06:58:00,21.9,19.7,30.14,NNW,330,0.0,0.0,91,0.00,,---,0.00,VWS V14.01,2013-03-04 11:58:00,
2013-03-04 06:59:00,22.0,19.8,30.14,NNW,330,0.0,0.0,91,0.00,,---,0.00,VWS V14.01,2013-03-04 11:59:00,
2013-03-04 07:00:00,22.0,19.8,30.14,NNW,330,0.0,0.0,91,0.00,,---,0.00,VWS V14.01,2013-03-04 12:00:00,
2013-03-04 07:01:00,22.1,19.6,30.14,NNW,330,0.0,0.0,90,0.00,,---,0.00,VWS V14.01,2013-03-04 12:01:00,
2013-03-04 07:02:00,22.1,19.6,30.14,NNW,330,0.0,0.0,90,0.00,,---,0.00,VWS V14.01,2013-03-04 12:02:00,
2013-03-04 07:03:00,22.2,19.7,30.15,NNW,330,0.0,0.0,90,0.00,,---,0.00,VWS V14.01,2013-03-04 12:03:00,
2013-03-04 07:04:00,22.3,19.8,30.14,NNW,330,0.0,0.0,90,0.00,,---,0.00,VWS V14.01,2013-03-04 12:04:00,
2013-03-04 07:05:00,22.4,19.9,30.14,NNW,330,0.0,0.0,90,0.00,,---,0.00,VWS V14.01,2013-03-04 12:05:00,
2013-03-04 07:06:00,22.4,19.9,30.14,NNW,330,0.0,2.0,90,0.00,,---,0.00,VWS V14.01,2013-03-04 12:06:00,
2013-03-04 07:08:00,19.1,17.2,30.14,NNW,330,0.0,0.0,92,0.01,,---,0.00,VWS V14.01,2013-03-04 12:08:00,
2013-03-04 07:09:00,22.6,19.9,30.14,NNW,330,0.0,1.0,89,0.00,,---,0.00,VWS V14.01,2013-03-04 12:09:00,
2013-03-04 07:10:00,22.6,19.9,30.14,NNW,330,0.0,0.0,89,0.00,,---,0.00,VWS V14.01,2013-03-04 12:10:00,
2013-03-04 07:11:00,22.6,19.9,30.14,NNW,330,0.0,0.0,89,0.00,,---,0.00,VWS V14.01,2013-03-04 12:11:00,
2013-03-04 07:12:00,19.0,17.1,30.14,NNW,330,0.0,0.0,92,0.00,,---,0.00,VWS V14.01,2013-03-04 12:12:00,
2013-03-04 07:13:00,22.7,20.0,30.14,NNW,330,0.0,0.0,89,0.00,,---,0.00,VWS V14.01,2013-03-04 12:13:00,
2013-03-04 07:14:00,22.8,20.0,30.14,NNW,330,0.0,0.0,89,0.00,,---,0.00,VWS V14.01,2013-03-04 12:14:00,
2013-03-04 07:15:00,22.8,20.0,30.14,NNW,330,0.0,0.0,89,0.00,,---,0.00,VWS V14.01,2013-03-04 12:15:00,
2013-03-04 07:16:00,22.9,20.1,30.14,NNW,330,0.0,0.0,89,0.00,,---,0.00,VWS V14.01,2013-03-04 12:16:00,
2013-03-04 07:17:00,18.5,16.6,30.14,NNW,330,0.0,0.0,92,0.00,,---,0.00,VWS V14.01,2013-03-04 12:17:00,
2013-03-04 07:18:00,23.0,20.2,30.14,NNW,330,0.0,1.0,89,0.00,,---,0.00,VWS V14.01,2013-03-04 12:18:00,
2013-03-04 07:19:00,23.1,20.4,30.14,NNW,330,0.0,0.0,89,0.00,,---,0.00,VWS V14.01,2013-03-04 12:19:00,
2013-03-04 07:20:00,23.3,20.5,30.14,NNW,330,0.0,0.0,89,0.00,,---,0.00,VWS V14.01,2013-03-04 12:20:00,
2013-03-04 07:21:00,23.4,20.4,30.14,NNW,330,0.0,0.0,88,0.00,,---,0.00,VWS V14.01,2013-03-04 12:21:00,
2013-03-04 07:22:00,18.5,18.5,30.14,NNW,330,0.0,0.0,100,0.00,,---,0.00,VWS V14.01,2013-03-04 12:22:00,
2013-03-04 07:23:00,23.6,20.6,30.14,NNW,330,0.0,0.0,88,0.00,,---,0.00,VWS V14.01,2013-03-04 12:23:00,
2013-03-04 07:24:00,23.8,20.8,30.14,NNW,330,0.0,0.0,88,0.00,,---,0.00,VWS V14.01,2013-03-04 12:24:00,
2013-03-04 07:25:00,23.9,20.9,30.14,NNW,330,0.0,0.0,88,0.00,,---,0.00,VWS V14.01,2013-03-04 12:25:00,
2013-03-04 07:26:00,24.1,21.1,30.15,NNW,330,0.0,0.0,88,0.00,,---,0.00,VWS V14.01,2013-03-04 12:26:00,
2013-03-04 07:27:00,18.7,16.8,30.14,NNW,330,0.0,0.0,92,0.00,,---,0.00,VWS V14.01,2013-03-04 12:27:00,
2013-03-04 07:28:00,24.5,21.5,30.15,NNW,330,0.0,0.0,88,0.00,,---,0.00,VWS V14.01,2013-03-04 12:28:00,
2013-03-04 07:29:00,24.6,21.6,30.15,NNW,330,0.0,1.0,88,0.00,,---,0.00,VWS V14.01,2013-03-04 12:29:00,
2013-03-04 07:30:00,24.7,21.4,30.15,NNW,330,0.0,0.0,87,0.00,,---,0.00,VWS V14.01,2013-03-04 12:30:00,
2013-03-04 07:31:00,24.9,21.6,30.15,NNW,330,0.0,0.0,87,0.00,,---,0.00,VWS V14.01,2013-03-04 12:31:00,
2013-03-04 07:32:00,19.3,17.6,30.14,NNW,330,0.0,0.0,93,0.00,,---,0.00,VWS V14.01,2013-03-04 12:32:00,
2013-03-04 07:33:00,25.2,21.9,30.15,South,171,0.0,1.0,87,0.00,,---,0.00,VWS V14.01,2013-03-04 12:33:00,
2013-03-04 07:34:00,25.3,21.7,30.15,South,171,0.0,0.0,86,0.00,,---,0.00,VWS V14.01,2013-03-04 12:34:00,
2013-03-04 07:35:00,25.5,21.9,30.15,South,171,4.0,4.0,86,0.00,,---,0.00,VWS V14.01,2013-03-04 12:35:00,
2013-03-04 07:36:00,25.6,21.7,30.15,SSE,168,1.0,4.0,85,0.00,,---,0.00,VWS V14.01,2013-03-04 12:36:00,
2013-03-04 07:37:00,20.0,18.3,30.14,NNW,330,0.0,0.0,93,0.00,,---,0.00,VWS V14.01,2013-03-04 12:37:00,
2013-03-04 07:38:00,25.7,21.5,30.15,SSE,155,2.0,4.0,84,0.00,,---,0.00,VWS V14.01,2013-03-04 12:38:00,
2013-03-04 07:39:00,25.8,21.4,30.14,SSE,153,5.0,5.0,83,0.00,,---,0.00,VWS V14.01,2013-03-04 12:39:00,
2013-03-04 07:40:00,25.9,21.5,30.15,SSE,153,0.0,5.0,83,0.00,,---,0.00,VWS V14.01,2013-03-04 12:40:00,
2013-03-04 07:41:00,26.0,21.6,30.15,SSE,153,0.0,0.0,83,0.00,,---,0.00,VWS V14.01,2013-03-04 12:41:00,
2013-03-04 07:42:00,20.6,18.9,30.14,NNW,330,0.0,0.0,93,0.00,,---,0.00,VWS V14.01,2013-03-04 12:42:00,
2013-03-04 07:43:00,26.2,21.8,30.15,SSE,153,0.0,1.0,83,0.00,,---,0.00,VWS V14.01,2013-03-04 12:43:00,
2013-03-04 07:44:00,26.3,21.9,30.15,SSE,153,1.0,2.0,83,0.00,,---,0.00,VWS V14.01,2013-03-04 12:44:00,
2013-03-04 07:45:00,26.5,22.0,30.15,SSE,153,2.0,4.0,83,0.00,,---,0.00,VWS V14.01,2013-03-04 12:45:00,
2013-03-04 07:46:00,26.5,22.0,30.15,SSE,153,1.0,2.0,83,0.00,,---,0.00,VWS V14.01,2013-03-04 12:46:00,
2013-03-04 07:47:00,21.2,19.2,30.14,NNW,330,0.0,0.0,92,0.00,,---,0.00,VWS V14.01,2013-03-04 12:47:00,
2013-03-04 07:48:00,26.7,22.0,30.15,SSE,153,0.0,0.0,82,0.00,,---,0.00,VWS V14.01,2013-03-04 12:48:00,
2013-03-04 07:49:00,26.9,22.1,30.15,SSE,153,0.0,2.0,82,0.00,,---,0.00,VWS V14.01,2013-03-04 12:49:00,
2013-03-04 07:50:00,26.9,22.1,30.15,SSE,153,1.0,1.0,82,0.00,,---,0.00,VWS V14.01,2013-03-04 12:50:00,
2013-03-04 07:51:00,27.0,22.2,30.15,SSE,153,0.0,1.0,82,0.00,,---,0.00,VWS V14.01,2013-03-04 12:51:00,
2013-03-04 07:52:00,27.1,22.4,30.15,SSE,153,0.0,1.0,82,0.00,,---,0.00,VWS V14.01,2013-03-04 12:52:00,
2013-03-04 07:53:00,21.7,19.5,30.14,NNW,330,0.0,0.0,91,0.00,,---,0.00,VWS V14.01,2013-03-04 12:53:00,
2013-03-04 07:54:00,27.3,22.2,30.15,SSE,153,0.0,1.0,81,0.00,,---,0.00,VWS V14.01,2013-03-04 12:54:00,
2013-03-04 07:55:00,27.4,22.4,30.15,SSE,153,0.0,0.0,81,0.00,,---,0.00,VWS V14.01,2013-03-04 12:55:00,
2013-03-04 07:56:00,27.5,22.5,30.15,SSE,153,0.0,0.0,81,0.00,,---,0.00,VWS V14.01,2013-03-04 12:56:00,
2013-03-04 07:57:00,27.6,22.5,30.15,SSE,153,0.0,0.0,81,0.00,,---,0.00,VWS V14.01,2013-03-04 12:57:00,
2013-03-04 07:58:00,22.0,19.8,30.14,NNW,330,0.0,0.0,91,0.00,,---,0.00,VWS V14.01,2013-03-04 12:58:00,
2013-03-04 07:59:00,27.8,22.7,30.15,SSE,153,0.0,4.0,81,0.00,,---,0.00,VWS V14.01,2013-03-04 12:59:00,
2013-03-04 08:00:00,28.0,22.9,30.15,SSE,152,4.0,5.0,81,0.00,,---,0.00,VWS V14.01,2013-03-04 13:00:00,
2013-03-04 08:01:00,28.0,22.6,30.15,SE,146,4.0,5.0,80,0.00,,---,0.00,VWS V14.01,2013-03-04 13:01:00,
2013-03-04 08:02:00,28.0,22.6,30.14,SE,146,4.0,4.0,80,0.00,,---,0.00,VWS V14.01,2013-03-04 13:02:00,
2013-03-04 08:03:00,22.3,19.8,30.14,NNW,330,0.0,0.0,90,0.00,,---,0.00,VWS V14.01,2013-03-04 13:03:00,
2013-03-04 08:04:00,28.2,22.5,30.14,SE,146,1.0,4.0,79,0.00,,---,0.00,VWS V14.01,2013-03-04 13:04:00,
2013-03-04 08:05:00,28.3,22.6,30.14,SE,146,2.0,4.0,79,0.00,,---,0.00,VWS V14.01,2013-03-04 13:05:00,
2013-03-04 08:06:00,28.4,22.7,30.14,SE,146,2.0,2.0,79,0.00,,---,0.00,VWS V14.01,2013-03-04 13:06:00,
2013-03-04 08:07:00,28.5,22.8,30.14,SSE,147,0.0,4.0,79,0.00,,---,0.00,VWS V14.01,2013-03-04 13:07:00,
2013-03-04 08:08:00,22.6,19.9,30.14,NNW,330,0.0,1.0,89,0.00,,---,0.00,VWS V14.01,2013-03-04 13:08:00,
2013-03-04 08:09:00,28.7,22.7,30.14,SE,144,1.0,1.0,78,0.00,,---,0.00,VWS V14.01,2013-03-04 13:09:00,
2013-03-04 08:10:00,28.8,22.8,30.14,SE,145,4.0,4.0,78,0.00,,---,0.00,VWS V14.01,2013-03-04 13:10:00,
2013-03-04 08:11:00,28.9,22.6,30.14,SE,145,4.0,5.0,77,0.00,,---,0.00,VWS V14.01,2013-03-04 13:11:00,
2013-03-04 08:12:00,29.0,22.4,30.14,SE,145,4.0,4.0,76,0.00,,---,0.00,VWS V14.01,2013-03-04 13:12:00,
2013-03-04 08:13:00,22.8,20.0,30.14,NNW,330,0.0,0.0,89,0.00,,---,0.00,VWS V14.01,2013-03-04 13:13:00,
2013-03-04 08:14:00,29.2,22.9,30.14,SE,145,1.0,2.0,77,0.00,,---,0.00,VWS V14.01,2013-03-04 13:14:00,
2013-03-04 08:15:00,29.3,23.0,30.14,SE,145,1.0,2.0,77,0.00,,---,0.00,VWS V14.01,2013-03-04 13:15:00,
2013-03-04 08:16:00,29.3,22.7,30.14,SE,145,0.0,1.0,76,0.00,,---,0.00,VWS V14.01,2013-03-04 13:16:00,
2013-03-04 08:18:00,23.1,20.4,30.14,NNW,330,0.0,0.0,89,0.00,,---,0.00,VWS V14.01,2013-03-04 13:18:00,
2013-03-04 08:20:00,29.6,22.7,30.14,SE,145,0.0,1.0,75,0.00,,---,0.00,VWS V14.01,2013-03-04 13:20:00,
2013-03-04 08:21:00,29.6,22.7,30.14,SE,145,0.0,0.0,75,0.00,,---,0.00,VWS V14.01,2013-03-04 13:21:00,
2013-03-04 08:22:00,29.7,23.1,30.14,SE,145,0.0,1.0,76,0.00,,---,0.00,VWS V14.01,2013-03-04 13:22:00,
2013-03-04 08:23:00,23.8,20.8,30.14,NNW,330,0.0,0.0,88,0.00,,---,0.00,VWS V14.01,2013-03-04 13:23:00,
2013-03-04 08:24:00,29.9,23.0,30.14,SE,145,0.0,1.0,75,0.00,,---,0.00,VWS V14.01,2013-03-04 13:24:00,
2013-03-04 08:25:00,30.0,23.0,30.15,SE,146,0.0,2.0,75,0.00,,---,0.00,VWS V14.01,2013-03-04 13:25:00,
2013-03-04 08:26:00,30.1,23.1,30.14,SE,146,0.0,1.0,75,0.00,,---,0.00,VWS V14.01,2013-03-04 13:26:00,
2013-03-04 08:27:00,30.2,23.2,30.14,SE,146,0.0,1.0,75,0.00,,---,0.00,VWS V14.01,2013-03-04 13:27:00,
2013-03-04 08:28:00,24.6,21.6,30.15,NNW,330,0.0,1.0,88,0.00,,---,0.00,VWS V14.01,2013-03-04 13:28:00,
2013-03-04 08:29:00,30.4,23.1,30.14,SE,146,2.0,2.0,74,0.00,,---,0.00,VWS V14.01,2013-03-04 13:29:00,
2013-03-04 08:30:00,30.5,23.2,30.14,SE,146,0.0,4.0,74,0.00,,---,0.00,VWS V14.01,2013-03-04 13:30:00,
2013-03-04 08:31:00,30.6,23.0,30.14,SE,146,0.0,1.0,73,0.00,,---,0.00,VWS V14.01,2013-03-04 13:31:00,
2013-03-04 08:32:00,30.6,22.7,30.14,SE,145,2.0,2.0,72,0.00,,---,0.00,VWS V14.01,2013-03-04 13:32:00,
2013-03-04 08:33:00,25.3,21.7,30.15,South,171,0.0,0.0,86,0.00,,---,0.00,VWS V14.01,2013-03-04 13:33:00,
2013-03-04 08:34:00,30.7,23.1,30.14,SE,146,0.0,1.0,73,0.00,,---,0.00,VWS V14.01,2013-03-04 13:34:00,
2013-03-04 08:37:00,31.0,23.0,30.14,SE,145,0.0,1.0,72,0.00,,---,0.00,VWS V14.01,2013-03-04 13:37:00,
2013-03-04 08:38:00,25.8,21.4,30.14,SSE,153,5.0,5.0,83,0.00,,---,0.00,VWS V14.01,2013-03-04 13:38:00,
2013-03-04 08:39:00,31.1,23.5,30.14,SE,145,0.0,1.0,73,0.00,,---,0.00,VWS V14.01,2013-03-04 13:39:00,
2013-03-04 08:40:00,31.2,23.2,30.14,SE,146,0.0,1.0,72,0.00,,---,0.00,VWS V14.01,2013-03-04 13:40:00,
2013-03-04 08:41:00,31.3,23.3,30.14,SE,146,0.0,1.0,72,0.00,,---,0.00,VWS V14.01,2013-03-04 13:41:00,
2013-03-04 08:42:00,31.4,23.8,30.14,SE,146,0.0,0.0,73,0.00,,---,0.00,VWS V14.01,2013-03-04 13:42:00,
2013-03-04 08:43:00,26.3,21.9,30.15,SSE,153,1.0,2.0,83,0.00,,---,0.00,VWS V14.01,2013-03-04 13:43:00,
2013-03-04 08:44:00,31.6,23.3,30.14,SE,146,1.0,2.0,71,0.00,,---,0.00,VWS V14.01,2013-03-04 13:44:00,
2013-03-04 08:45:00,31.6,23.3,30.14,SE,146,0.0,1.0,71,0.00,,---,0.00,VWS V14.01,2013-03-04 13:45:00,
2013-03-04 08:46:00,31.7,23.0,30.14,SE,146,0.0,4.0,70,0.00,,---,0.00,VWS V14.01,2013-03-04 13:46:00,
2013-03-04 08:47:00,31.8,23.1,30.14,SE,146,2.0,4.0,70,0.00,,---,0.00,VWS V14.01,2013-03-04 13:47:00,
2013-03-04 08:48:00,26.9,22.1,30.15,SSE,153,0.0,2.0,82,0.00,,---,0.00,VWS V14.01,2013-03-04 13:48:00,
2013-03-04 08:49:00,31.9,22.2,30.14,SSE,154,1.0,4.0,67,0.00,,---,0.00,VWS V14.01,2013-03-04 13:49:00,
2013-03-04 08:50:00,31.9,22.5,30.14,South,170,1.0,6.0,68,0.00,,---,0.00,VWS V14.01,2013-03-04 13:50:00,
2013-03-04 08:51:00,32.0,21.9,30.14,South,186,4.0,6.0,66,0.00,,---,0.00,VWS V14.01,2013-03-04 13:51:00,
2013-03-04 08:52:00,32.1,22.0,30.14,SE,144,1.0,5.0,66,0.00,,---,0.00,VWS V14.01,2013-03-04 13:52:00,
2013-03-04 08:53:00,27.3,22.2,30.15,SSE,153,0.0,1.0,81,0.00,,---,0.00,VWS V14.01,2013-03-04 13:53:00,
2013-03-04 08:54:00,32.2,22.5,30.14,SE,126,5.0,7.0,67,0.00,,---,0.00,VWS V14.01,2013-03-04 13:54:00,
2013-03-04 08:55:00,32.2,21.8,30.14,South,174,0.0,5.0,65,0.00,,---,0.00,VWS V14.01,2013-03-04 13:55:00,
2013-03-04 08:56:00,32.3,22.2,30.14,SSW,195,0.0,2.0,66,0.00,,---,0.00,VWS V14.01,2013-03-04 13:56:00,
2013-03-04 08:57:00,32.3,22.2,30.14,SE,146,0.0,5.0,66,0.00,,---,0.00,VWS V14.01,2013-03-04 13:57:00,
2013-03-04 08:58:00,27.8,22.7,30.15,SSE,153,0.0,4.0,81,0.00,,---,0.00,VWS V14.01,2013-03-04 13:58:00,
2013-03-04 08:59:00,32.5,22.8,30.14,South,186,1.0,2.0,67,0.00,,---,0.00,VWS V14.01,2013-03-04 13:59:00,
2013-03-04 09:00:00,32.6,22.5,30.13,SSE,150,1.0,4.0,66,0.00,,---,0.00,VWS V14.01,2013-03-04 14:00:00,
2013-03-04 09:01:00,32.6,22.1,30.14,South,173,4.0,6.0,65,0.00,,---,0.00,VWS V14.01,2013-03-04 14:01:00,
2013-03-04 09:02:00,32.6,21.8,30.14,South,170,2.0,4.0,64,0.00,,---,0.00,VWS V14.01,2013-03-04 14:02:00,
2013-03-04 09:03:00,28.2,22.5,30.14,SE,146,1.0,4.0,79,0.00,,---,0.00,VWS V14.01,2013-03-04 14:03:00,
2013-03-04 09:04:00,32.6,22.1,30.14,SE,136,1.0,6.0,65,0.00,,---,0.00,VWS V14.01,2013-03-04 14:04:00,
2013-03-04 09:05:00,32.7,21.9,30.13,ESE,122,0.0,2.0,64,0.00,,---,0.00,VWS V14.01,2013-03-04 14:05:00,
2013-03-04 09:06:00,32.7,22.2,30.13,SE,129,0.0,1.0,65,0.00,,---,0.00,VWS V14.01,2013-03-04 14:06:00,
2013-03-04 09:07:00,32.8,22.7,30.13,South,181,1.0,4.0,66,0.00,,---,0.00,VWS V14.01,2013-03-04 14:07:00,
2013-03-04 09:08:00,28.7,22.7,30.14,SE,144,1.0,1.0,78,0.00,,---,0.00,VWS V14.01,2013-03-04 14:08:00,
2013-03-04 09:09:00,32.9,22.1,30.13,SE,146,7.0,7.0,64,0.00,,---,0.00,VWS V14.01,2013-03-04 14:09:00,
2013-03-04 09:10:00,32.9,22.1,30.13,SSE,154,6.0,8.0,64,0.00,,---,0.00,VWS V14.01,2013-03-04 14:10:00,
2013-03-04 09:11:00,32.8,21.6,30.13,SSE,155,1.0,7.0,63,0.00,,---,0.00,VWS V14.01,2013-03-04 14:11:00,
2013-03-04 09:12:00,32.8,22.0,30.13,South,178,2.0,8.0,64,0.00,,---,0.00,VWS V14.01,2013-03-04 14:12:00,
2013-03-04 09:13:00,29.2,22.9,30.14,SE,145,1.0,2.0,77,0.00,,---,0.00,VWS V14.01,2013-03-04 14:13:00,
2013-03-04 09:14:00,32.8,22.3,30.13,SE,145,4.0,8.0,65,0.00,,---,0.00,VWS V14.01,2013-03-04 14:14:00,
2013-03-04 09:15:00,32.8,22.3,30.13,South,182,2.0,4.0,65,0.00,,---,0.00,VWS V14.01,2013-03-04 14:15:00,
2013-03-04 09:16:00,32.8,22.3,30.13,South,182,1.0,3.0,65,0.00,,---,0.00,VWS V14.01,2013-03-04 14:16:00,
2013-03-04 09:17:00,32.8,22.0,30.13,South,181,2.0,2.0,64,0.00,,---,0.00,VWS V14.01,2013-03-04 14:17:00,
2013-03-04 09:18:00,29.5,22.6,30.14,SE,145,0.0,0.0,75,0.00,,---,0.00,VWS V14.01,2013-03-04 14:18:00,
2013-03-04 09:19:00,32.8,22.3,30.13,SSE,167,1.0,2.0,65,0.00,,---,0.00,VWS V14.01,2013-03-04 14:19:00,
2013-03-04 09:20:00,32.8,22.3,30.13,SSE,161,6.0,7.0,65,0.00,,---,0.00,VWS V14.01,2013-03-04 14:20:00,
2013-03-04 09:21:00,32.9,21.7,30.13,SE,129,4.0,6.0,63,0.00,,---,0.00,VWS V14.01,2013-03-04 14:21:00,
2013-03-04 09:22:00,32.9,21.3,30.13,SE,132,8.0,10.0,62,0.00,,---,0.00,VWS V14.01,2013-03-04 14:22:00,
2013-03-04 09:23:00,29.9,23.0,30.14,SE,145,0.0,1.0,75,0.00,,---,0.00,VWS V14.01,2013-03-04 14:23:00,
2013-03-04 09:24:00,32.9,21.3,30.13,SSE,167,5.0,7.0,62,0.00,,---,0.00,VWS V14.01,2013-03-04 14:24:00,
2013-03-04 09:25:00,32.8,21.2,30.13,SSE,154,6.0,7.0,62,0.00,,---,0.00,VWS V14.01,2013-03-04 14:25:00,
2013-03-04 09:26:00,32.8,20.8,30.13,South,186,4.0,6.0,61,0.00,,---,0.00,VWS V14.01,2013-03-04 14:26:00,
2013-03-04 09:27:00,32.8,21.6,30.13,SSE,149,7.0,8.0,63,0.00,,---,0.00,VWS V14.01,2013-03-04 14:27:00,
2013-03-04 09:28:00,30.4,23.1,30.14,SE,146,2.0,2.0,74,0.00,,---,0.00,VWS V14.01,2013-03-04 14:28:00,
2013-03-04 09:29:00,32.7,21.1,30.13,SE,135,2.0,2.0,62,0.00,,---,0.00,VWS V14.01,2013-03-04 14:29:00,
2013-03-04 09:30:00,32.7,21.5,30.13,South,173,1.0,6.0,63,0.00,,---,0.00,VWS V14.01,2013-03-04 14:30:00,
2013-03-04 09:31:00,32.8,22.0,30.13,SSE,157,4.0,7.0,64,0.00,,---,0.00,VWS V14.01,2013-03-04 14:31:00,
2013-03-04 09:32:00,32.8,21.6,30.13,SE,142,5.0,7.0,63,0.00,,---,0.00,VWS V14.01,2013-03-04 14:32:00,
2013-03-04 09:33:00,30.7,23.1,30.14,SE,146,0.0,1.0,73,0.00,,---,0.00,VWS V14.01,2013-03-04 14:33:00,
2013-03-04 09:34:00,32.9,20.9,30.13,SSE,152,8.0,9.0,61,0.00,,---,0.00,VWS V14.01,2013-03-04 14:34:00,
2013-03-04 09:35:00,32.9,20.9,30.13,ESE,119,2.0,8.0,61,0.00,,---,0.00,VWS V14.01,2013-03-04 14:35:00,
2013-03-04 09:36:00,33.0,21.0,30.13,ESE,105,4.0,6.0,61,0.00,,---,0.00,VWS V14.01,2013-03-04 14:36:00,
2013-03-04 09:37:00,33.0,21.0,30.13,SE,138,5.0,7.0,61,0.00,,---,0.00,VWS V14.01,2013-03-04 14:37:00,
2013-03-04 09:38:00,31.1,23.5,30.14,SE,145,0.0,1.0,73,0.00,,---,0.00,VWS V14.01,2013-03-04 14:38:00,
2013-03-04 09:39:00,33.1,21.1,30.13,SE,126,5.0,6.0,61,0.00,,---,0.00,VWS V14.01,2013-03-04 14:39:00,
2013-03-04 09:40:00,33.1,20.7,30.13,SSE,159,0.0,7.0,60,0.00,,---,0.00,VWS V14.01,2013-03-04 14:40:00,
2013-03-04 09:42:00,33.2,21.2,30.13,South,176,0.0,5.0,61,0.00,,---,0.00,VWS V14.01,2013-03-04 14:42:00,
2013-03-04 09:43:00,33.2,21.2,30.13,SSE,167,0.0,1.0,61,0.00,,---,0.00,VWS V14.01,2013-03-04 14:43:00,
2013-03-04 09:44:00,31.6,23.3,30.14,SE,146,0.0,1.0,71,0.00,,---,0.00,VWS V14.01,2013-03-04 14:44:00,
2013-03-04 09:45:00,33.2,21.2,30.13,South,177,1.0,7.0,61,0.00,,---,0.00,VWS V14.01,2013-03-04 14:45:00,
2013-03-04 09:46:00,33.2,20.8,30.13,SSE,155,5.0,5.0,60,0.00,,---,0.00,VWS V14.01,2013-03-04 14:46:00,
2013-03-04 09:47:00,33.2,21.2,30.13,SSE,153,0.0,6.0,61,0.00,,---,0.00,VWS V14.01,2013-03-04 14:47:00,
2013-03-04 09:48:00,33.2,22.0,30.13,ESE,110,4.0,6.0,63,0.00,,---,0.00,VWS V14.01,2013-03-04 14:48:00,
2013-03-04 09:49:00,31.9,22.5,30.14,South,170,1.0,6.0,68,0.00,,---,0.00,VWS V14.01,2013-03-04 14:49:00,
2013-03-04 09:50:00,33.2,21.2,30.13,South,186,3.0,5.0,61,0.00,,---,0.00,VWS V14.01,2013-03-04 14:50:00,
2013-03-04 09:51:00,33.3,21.7,30.13,South,178,2.0,3.0,62,0.00,,---,0.00,VWS V14.01,2013-03-04 14:51:00,
2013-03-04 09:52:00,33.3,21.7,30.13,SE,146,4.0,5.0,62,0.00,,---,0.00,VWS V14.01,2013-03-04 14:52:00,
2013-03-04 09:53:00,33.3,21.3,30.13,SSE,148,1.0,4.0,61,0.00,,---,0.00,VWS V14.01,2013-03-04 14:53:00,
2013-03-04 09:54:00,32.2,21.8,30.14,South,174,0.0,5.0,65,0.00,,---,0.00,VWS V14.01,2013-03-04 14:54:00,
2013-03-04 09:56:00,33.6,22.0,30.13,SSE,150,2.0,8.0,62,0.00,,---,0.00,VWS V14.01,2013-03-04 14:56:00,
2013-03-04 09:57:00,33.6,21.6,30.13,SSE,161,1.0,5.0,61,0.00,,---,0.00,VWS V14.01,2013-03-04 14:57:00,
2013-03-04 09:58:00,33.7,22.1,30.13,South,182,4.0,4.0,62,0.00,,---,0.00,VWS V14.01,2013-03-04 14:58:00,
2013-03-04 09:59:00,32.6,22.5,30.13,SSE,150,1.0,4.0,66,0.00,,---,0.00,VWS V14.01,2013-03-04 14:59:00,
2013-03-04 10:00:00,33.9,21.9,30.13,South,181,1.0,2.0,61,0.00,,---,0.00,VWS V14.01,2013-03-04 15:00:00,
2013-03-04 10:01:00,34.0,22.4,30.13,South,171,2.0,7.0,62,0.00,,---,0.00,VWS V14.01,2013-03-04 15:01:00,
2013-03-04 10:02:00,34.1,22.5,30.13,South,182,1.0,4.0,62,0.00,,---,0.00,VWS V14.01,2013-03-04 15:02:00,
2013-03-04 10:03:00,34.2,22.2,30.13,South,175,4.0,4.0,61,0.00,,---,0.00,VWS V14.01,2013-03-04 15:03:00,
2013-03-04 10:04:00,32.7,21.9,30.13,ESE,122,0.0,2.0,64,0.00,,---,0.00,VWS V14.01,2013-03-04 15:04:00,
2013-03-04 10:05:00,34.3,21.9,30.13,South,178,0.0,1.0,60,0.00,,---,0.00,VWS V14.01,2013-03-04 15:05:00,
2013-03-04 10:06:00,34.3,22.6,30.13,SSE,157,5.0,8.0,62,0.00,,---,0.00,VWS V14.01,2013-03-04 15:06:00,
2013-03-04 10:07:00,34.3,22.3,30.13,SSE,152,0.0,7.0,61,0.00,,---,0.00,VWS V14.01,2013-03-04 15:07:00,
2013-03-04 10:08:00,34.3,21.9,30.13,SSE,153,0.0,5.0,60,0.00,,---,0.00,VWS V14.01,2013-03-04 15:08:00,
2013-03-04 10:09:00,32.9,22.1,30.13,SSE,154,6.0,8.0,64,0.00,,---,0.00,VWS V14.01,2013-03-04 15:09:00,
2013-03-04 10:10:00,34.3,21.5,30.13,SSE,166,6.0,8.0,59,0.00,,---,0.00,VWS V14.01,2013-03-04 15:10:00,
2013-03-04 10:11:00,34.2,21.0,30.13,SSE,150,0.0,7.0,58,0.00,,---,0.00,VWS V14.01,2013-03-04 15:11:00,
2013-03-04 10:12:00,34.0,21.2,30.13,ESE,111,7.0,7.0,59,0.00,,---,0.00,VWS V14.01,2013-03-04 15:12:00,
2013-03-04 10:13:00,34.0,21.2,30.13,SE,146,5.0,8.0,59,0.00,,---,0.00,VWS V14.01,2013-03-04 15:13:00,
2013-03-04 10:14:00,32.8,22.3,30.13,South,182,2.0,4.0,65,0.00,,---,0.00,VWS V14.01,2013-03-04 15:14:00,
2013-03-04 10:15:00,33.9,21.1,30.13,SE,128,2.0,6.0,59,0.00,,---,0.00,VWS V14.01,2013-03-04 15:15:00,
2013-03-04 10:16:00,33.9,21.1,30.13,SSE,152,4.0,5.0,59,0.00,,---,0.00,VWS V14.01,2013-03-04 15:16:00,
2013-03-04 10:17:00,34.0,22.0,30.13,South,178,2.0,4.0,61,0.00,,---,0.00,VWS V14.01,2013-03-04 15:17:00,
2013-03-04 10:18:00,34.1,22.1,30.13,South,179,0.0,4.0,61,0.00,,---,0.00,VWS V14.01,2013-03-04 15:18:00,
2013-03-04 10:19:00,32.8,22.3,30.13,SSE,161,6.0,7.0,65,0.00,,---,0.00,VWS V14.01,2013-03-04 15:19:00,
2013-03-04 10:20:00,34.2,22.2,30.13,SE,138,5.0,9.0,61,0.00,,---,0.00,VWS V14.01,2013-03-04 15:20:00,
2013-03-04 10:21:00,34.3,21.9,30.13,SE,146,2.0,9.0,60,0.00,,---,0.00,VWS V14.01,2013-03-04 15:21:00,
2013-03-04 10:22:00,34.4,22.0,30.13,SSW,202,2.0,6.0,60,0.00,,---,0.00,VWS V14.01,2013-03-04 15:22:00,
2013-03-04 10:23:00,34.4,22.0,30.12,South,175,5.0,7.0,60,0.00,,---,0.00,VWS V14.01,2013-03-04 15:23:00,
2013-03-04 10:24:00,32.8,21.2,30.13,SSE,154,6.0,7.0,62,0.00,,---,0.00,VWS V14.01,2013-03-04 15:24:00,
2013-03-04 10:25:00,34.5,22.5,30.12,South,190,0.0,3.0,61,0.00,,---,0.00,VWS V14.01,2013-03-04 15:25:00,
2013-03-04 10:26:00,34.5,22.1,30.12,South,190,1.0,1.0,60,0.00,,---,0.00,VWS V14.01,2013-03-04 15:26:00,
2013-03-04 10:27:00,34.6,22.9,30.12,South,181,0.0,3.0,62,0.00,,---,0.00,VWS V14.01,2013-03-04 15:27:00,
2013-03-04 10:28:00,34.6,23.7,30.12,SSE,153,5.0,6.0,64,0.00,,---,0.00,VWS V14.01,2013-03-04 15:28:00,
2013-03-04 10:29:00,32.7,21.5,30.13,South,173,1.0,6.0,63,0.00,,---,0.00,VWS V14.01,2013-03-04 15:29:00,
2013-03-04 10:30:00,34.7,22.6,30.12,South,175,4.0,5.0,61,0.00,,---,0.00,VWS V14.01,2013-03-04 15:30:00,
2013-03-04 10:31:00,34.7,22.2,30.12,SSE,157,4.0,5.0,60,0.00,,---,0.00,VWS V14.01,2013-03-04 15:31:00,
2013-03-04 10:32:00,34.7,22.2,30.12,South,172,1.0,5.0,60,0.00,,---,0.00,VWS V14.01,2013-03-04 15:32:00,
2013-03-04 10:33:00,34.6,22.5,30.12,South,181,3.0,6.0,61,0.00,,---,0.00,VWS V14.01,2013-03-04 15:33:00,
2013-03-04 10:34:00,32.9,20.9,30.13,ESE,119,2.0,8.0,61,0.00,,---,0.00,VWS V14.01,2013-03-04 15:34:00,
2013-03-04 10:35:00,34.6,22.5,30.12,South,185,4.0,8.0,61,0.00,,---,0.00,VWS V14.01,2013-03-04 15:35:00,
2013-03-04 10:36:00,34.6,22.2,30.12,SSE,165,1.0,5.0,60,0.00,,---,0.00,VWS V14.01,2013-03-04 15:36:00,
2013-03-04 10:37:00,34.5,22.1,30.12,SSE,155,1.0,5.0,60,0.00,,---,0.00,VWS V14.01,2013-03-04 15:37:00,
2013-03-04 10:38:00,34.5,22.1,30.12,SSE,161,1.0,2.0,60,0.00,,---,0.00,VWS V14.01,2013-03-04 15:38:00,
2013-03-04 10:39:00,33.1,20.7,30.13,SSE,159,0.0,7.0,60,0.00,,---,0.00,VWS V14.01,2013-03-04 15:39:00,
2013-03-04 10:40:00,34.5,22.1,30.12,SSE,163,5.0,6.0,60,0.00,,---,0.00,VWS V14.01,2013-03-04 15:40:00,
2013-03-04 10:41:00,34.5,22.1,30.12,SSE,163,1.0,6.0,60,0.00,,---,0.00,VWS V14.01,2013-03-04 15:41:00,
2013-03-04 10:42:00,34.5,22.1,30.12,ESE,112,2.0,4.0,60,0.00,,---,0.00,VWS V14.01,2013-03-04 15:42:00,
2013-03-04 10:43:00,34.6,22.5,30.11,SE,137,2.0,6.0,61,0.00,,---,0.00,VWS V14.01,2013-03-04 15:43:00,
2013-03-04 10:44:00,33.2,21.2,30.13,South,177,1.0,7.0,61,0.00,,---,0.00,VWS V14.01,2013-03-04 15:44:00,
2013-03-04 10:45:00,34.7,22.6,30.11,SE,146,1.0,6.0,61,0.00,,---,0.00,VWS V14.01,2013-03-04 15:45:00,
2013-03-04 10:46:00,34.8,23.1,30.11,South,172,4.0,5.0,62,0.00,,---,0.00,VWS V14.01,2013-03-04 15:46:00,
2013-03-04 10:47:00,34.9,22.8,30.11,SE,141,5.0,5.0,61,0.00,,---,0.00,VWS V14.01,2013-03-04 15:47:00,
2013-03-04 10:48:00,34.9,22.8,30.11,SSE,155,6.0,6.0,61,0.00,,---,0.00,VWS V14.01,2013-03-04 15:48:00,
2013-03-04 10:49:00,33.2,21.2,30.13,South,186,3.0,5.0,61,0.00,,---,0.00,VWS V14.01,2013-03-04 15:49:00,
2013-03-04 10:50:00,34.8,21.5,30.11,South,178,4.0,6.0,58,0.00,,---,0.00,VWS V14.01,2013-03-04 15:50:00,
2013-03-04 10:51:00,34.8,21.5,30.11,SSE,165,1.0,5.0,58,0.00,,---,0.00,VWS V14.01,2013-03-04 15:51:00,
2013-03-04 10:52:00,34.7,22.2,30.11,SE,136,6.0,6.0,60,0.00,,---,0.00,VWS V14.01,2013-03-04 15:52:00,
2013-03-04 10:53:00,34.8,22.3,30.11,South,187,2.0,7.0,60,0.00,,---,0.00,VWS V14.01,2013-03-04 15:53:00,
2013-03-04 10:54:00,34.8,22.0,30.11,South,188,3.0,3.0,59,0.00,,---,0.00,VWS V14.01,2013-03-04 15:54:00,
2013-03-04 10:55:00,33.5,22.3,30.13,SSE,147,8.0,9.0,63,0.00,,---,0.00,VWS V14.01,2013-03-04 15:55:00,
2013-03-04 10:56:00,34.8,21.5,30.11,SSE,150,0.0,5.0,58,0.00,,---,0.00,VWS V14.01,2013-03-04 15:56:00,
2013-03-04 10:57:00,34.8,22.0,30.11,SSE,164,0.0,6.0,59,0.00,,---,0.00,VWS V14.01,2013-03-04 15:57:00,
2013-03-04 10:58:00,34.9,21.6,30.11,SSE,164,1.0,2.0,58,0.00,,---,0.00,VWS V14.01,2013-03-04 15:58:00,
2013-03-04 10:59:00,35.0,22.1,30.11,SSW,197,1.0,3.0,59,0.00,,---,0.00,VWS V14.01,2013-03-04 15:59:00,
2013-03-04 11:00:00,34.0,22.4,30.13,South,171,2.0,7.0,62,0.00,,---,0.00,VWS V14.01,2013-03-04 16:00:00,
2013-03-04 11:01:00,35.2,22.7,30.11,South,181,3.0,7.0,60,0.00,,---,0.00,VWS V14.01,2013-03-04 16:01:00,
2013-03-04 11:02:00,35.3,22.8,30.11,South,179,2.0,5.0,60,0.00,,---,0.00,VWS V14.01,2013-03-04 16:02:00,
2013-03-04 11:03:00,35.4,22.5,30.11,South,179,4.0,4.0,59,0.00,,---,0.00,VWS V14.01,2013-03-04 16:03:00,
2013-03-04 11:04:00,35.4,22.5,30.11,SSE,168,7.0,8.0,59,0.00,,---,0.00,VWS V14.01,2013-03-04 16:04:00,
2013-03-04 11:05:00,34.3,22.6,30.13,SSE,157,5.0,8.0,62,0.00,,---,0.00,VWS V14.01,2013-03-04 16:05:00,
2013-03-04 11:06:00,35.5,23.0,30.11,SE,146,5.0,6.0,60,0.00,,---,0.00,VWS V14.01,2013-03-04 16:06:00,
2013-03-04 11:07:00,35.6,23.1,30.11,South,174,0.0,5.0,60,0.00,,---,0.00,VWS V14.01,2013-03-04 16:07:00,
2013-03-04 11:08:00,35.6,23.1,30.11,SSE,153,4.0,6.0,60,0.00,,---,0.00,VWS V14.01,2013-03-04 16:08:00,
2013-03-04 11:09:00,35.7,23.6,30.11,SSE,165,5.0,7.0,61,0.00,,---,0.00,VWS V14.01,2013-03-04 16:09:00,
2013-03-04 11:10:00,34.2,21.0,30.13,SSE,150,0.0,7.0,58,0.00,,---,0.00,VWS V14.01,2013-03-04 16:10:00,
2013-03-04 11:11:00,35.7,22.4,30.11,SSE,163,0.0,8.0,58,0.00,,---,0.00,VWS V14.01,2013-03-04 16:11:00,
2013-03-04 11:12:00,35.7,22.8,30.11,SE,128,2.0,7.0,59,0.00,,---,0.00,VWS V14.01,2013-03-04 16:12:00,
2013-03-04 11:13:00,35.8,22.9,30.11,SSW,200,3.0,7.0,59,0.00,,---,0.00,VWS V14.01,2013-03-04 16:13:00,
2013-03-04 11:14:00,35.8,22.9,30.11,South,173,5.0,5.0,59,0.00,,---,0.00,VWS V14.01,2013-03-04 16:14:00,
2013-03-04 11:15:00,35.8,22.9,30.11,SE,140,5.0,8.0,59,0.00,,---,0.00,VWS V14.01,2013-03-04 16:15:00,
2013-03-04 11:16:00,34.0,22.0,30.13,South,178,2.0,4.0,61,0.00,,---,0.00,VWS V14.01,2013-03-04 16:16:00,
2013-03-04 11:17:00,35.9,23.0,30.11,SSE,165,0.0,6.0,59,0.00,,---,0.00,VWS V14.01,2013-03-04 16:17:00,
2013-03-04 11:18:00,35.9,23.0,30.11,SSE,168,0.0,2.0,59,0.00,,---,0.00,VWS V14.01,2013-03-04 16:18:00,
2013-03-04 11:19:00,36.0,23.5,30.11,SSE,167,0.0,1.0,60,0.00,,---,0.00,VWS V14.01,2013-03-04 16:19:00,
2013-03-04 11:20:00,36.1,24.0,30.10,SSE,167,0.0,0.0,61,0.00,,---,0.00,VWS V14.01,2013-03-04 16:20:00,
2013-03-04 11:21:00,34.4,22.0,30.13,SSW,202,2.0,6.0,60,0.00,,---,0.00,VWS V14.01,2013-03-04 16:21:00,
2013-03-04 11:22:00,36.2,23.7,30.10,South,171,4.0,4.0,60,0.00,,---,0.00,VWS V14.01,2013-03-04 16:22:00,
2013-03-04 11:23:00,36.4,23.9,30.10,SSE,167,0.0,6.0,60,0.00,,---,0.00,VWS V14.01,2013-03-04 16:23:00,
2013-03-04 11:24:00,36.4,23.9,30.10,South,176,4.0,4.0,60,0.00,,---,0.00,VWS V14.01,2013-03-04 16:24:00,
2013-03-04 11:25:00,36.6,24.4,30.10,South,175,4.0,7.0,61,0.00,,---,0.00,VWS V14.01,2013-03-04 16:25:00,
2013-03-04 11:26:00,34.6,22.9,30.12,South,181,0.0,3.0,62,0.00,,---,0.00,VWS V14.01,2013-03-04 16:26:00,
2013-03-04 11:27:00,36.7,23.7,30.10,SSE,166,2.0,4.0,59,0.00,,---,0.00,VWS V14.01,2013-03-04 16:27:00,
2013-03-04 11:28:00,36.8,23.4,30.10,ESE,112,5.0,6.0,58,0.00,,---,0.00,VWS V14.01,2013-03-04 16:28:00,
2013-03-04 11:29:00,36.8,23.8,30.10,ESE,118,4.0,5.0,59,0.00,,---,0.00,VWS V14.01,2013-03-04 16:29:00,
2013-03-04 11:30:00,36.8,23.4,30.10,SE,134,4.0,5.0,58,0.00,,---,0.00,VWS V14.01,2013-03-04 16:30:00,
2013-03-04 11:31:00,34.7,22.2,30.12,South,172,1.0,5.0,60,0.00,,---,0.00,VWS V14.01,2013-03-04 16:31:00,
2013-03-04 11:32:00,36.9,22.7,30.10,SSE,163,1.0,5.0,56,0.00,,---,0.00,VWS V14.01,2013-03-04 16:32:00,
2013-03-04 11:33:00,36.9,23.5,30.10,South,185,1.0,6.0,58,0.00,,---,0.00,VWS V14.01,2013-03-04 16:33:00,
2013-03-04 11:34:00,36.9,23.9,30.10,SSE,162,0.0,4.0,59,0.00,,---,0.00,VWS V14.01,2013-03-04 16:34:00,
2013-03-04 11:35:00,37.0,24.0,30.10,SSE,159,0.0,2.0,59,0.00,,---,0.00,VWS V14.01,2013-03-04 16:35:00,
2013-03-04 11:36:00,34.5,22.1,30.12,SSE,155,1.0,5.0,60,0.00,,---,0.00,VWS V14.01,2013-03-04 16:36:00,
2013-03-04 11:37:00,37.0,22.8,30.10,South,180,3.0,4.0,56,0.00,,---,0.00,VWS V14.01,2013-03-04 16:37:00,
2013-03-04 11:38:00,37.0,22.8,30.10,SSE,149,0.0,8.0,56,0.00,,---,0.00,VWS V14.01,2013-03-04 16:38:00,
2013-03-04 11:39:00,37.0,23.2,30.10,South,179,1.0,4.0,57,0.00,,---,0.00,VWS V14.01,2013-03-04 16:39:00,
2013-03-04 11:40:00,37.0,24.0,30.10,SSE,148,7.0,9.0,59,0.00,,---,0.00,VWS V14.01,2013-03-04 16:40:00,
2013-03-04 11:41:00,34.5,22.1,30.12,ESE,112,2.0,4.0,60,0.00,,---,0.00,VWS V14.01,2013-03-04 16:41:00,
2013-03-04 11:42:00,37.2,22.5,30.10,SSE,149,5.0,8.0,55,0.00,,---,0.00,VWS V14.01,2013-03-04 16:42:00,
2013-03-04 11:43:00,37.2,23.0,30.10,SSE,157,0.0,5.0,56,0.00,,---,0.00,VWS V14.01,2013-03-04 16:43:00,
2013-03-04 11:44:00,37.2,23.0,30.10,SSE,167,1.0,6.0,56,0.00,,---,0.00,VWS V14.01,2013-03-04 16:44:00,
2013-03-04 11:45:00,37.2,22.5,30.10,SE,131,2.0,4.0,55,0.00,,---,0.00,VWS V14.01,2013-03-04 16:45:00,
2013-03-04 11:46:00,37.2,22.5,30.10,SE,132,8.0,11.0,55,0.00,,---,0.00,VWS V14.01,2013-03-04 16:46:00,
2013-03-04 11:47:00,34.9,22.8,30.11,SE,141,5.0,5.0,61,0.00,,---,0.00,VWS V14.01,2013-03-04 16:47:00,
2013-03-04 11:48:00,37.2,23.0,30.09,SE,140,8.0,9.0,56,0.00,,---,0.00,VWS V14.01,2013-03-04 16:48:00,
2013-03-04 11:49:00,37.3,23.1,30.09,SSE,149,4.0,8.0,56,0.00,,---,0.00,VWS V14.01,2013-03-04 16:49:00,
2013-03-04 11:50:00,37.3,23.5,30.09,SSE,147,6.0,6.0,57,0.00,,---,0.00,VWS V14.01,2013-03-04 16:50:00,
2013-03-04 11:51:00,37.4,23.1,30.09,SSE,148,5.0,9.0,56,0.00,,---,0.00,VWS V14.01,2013-03-04 16:51:00,
2013-03-04 11:52:00,37.4,22.3,30.09,NNE,22,0.0,5.0,54,0.00,,---,0.00,VWS V14.01,2013-03-04 16:52:00,
2013-03-04 11:53:00,34.8,22.3,30.11,South,187,2.0,7.0,60,0.00,,---,0.00,VWS V14.01,2013-03-04 16:53:00,
2013-03-04 11:54:00,37.5,23.7,30.09,SE,128,1.0,4.0,57,0.00,,---,0.00,VWS V14.01,2013-03-04 16:54:00,
2013-03-04 11:55:00,37.7,24.7,30.09,South,188,2.0,5.0,59,0.00,,---,0.00,VWS V14.01,2013-03-04 16:55:00,
2013-03-04 11:56:00,37.8,24.4,30.09,South,169,2.0,5.0,58,0.00,,---,0.00,VWS V14.01,2013-03-04 16:56:00,
2013-03-04 11:57:00,37.9,23.6,30.09,SSE,161,4.0,7.0,56,0.00,,---,0.00,VWS V14.01,2013-03-04 16:57:00,
2013-03-04 11:58:00,35.0,22.1,30.11,SSW,197,1.0,3.0,59,0.00,,---,0.00,VWS V14.01,2013-03-04 16:58:00,
2013-03-04 11:59:00,37.8,23.1,30.09,SSE,152,4.0,7.0,55,0.00,,---,0.00,VWS V14.01,2013-03-04 16:59:00,
2013-03-04 12:00:00,37.8,22.7,30.09,SSE,158,5.0,8.0,54,0.00,,---,0.00,VWS V14.01,2013-03-04 17:00:00,
2013-03-04 12:01:00,37.7,22.6,30.09,SE,132,6.0,6.0,54,0.00,,---,0.00,VWS V14.01,2013-03-04 17:01:00,
2013-03-04 12:02:00,37.7,22.6,30.09,SSE,148,1.0,7.0,54,0.00,,---,0.00,VWS V14.01,2013-03-04 17:02:00,
2013-03-04 12:03:00,35.4,22.5,30.11,SSE,168,7.0,8.0,59,0.00,,---,0.00,VWS V14.01,2013-03-04 17:03:00,
2013-03-04 12:04:00,37.6,22.5,30.08,East,101,5.0,7.0,54,0.00,,---,0.00,VWS V14.01,2013-03-04 17:04:00,
2013-03-04 12:05:00,37.6,22.9,30.09,SSE,153,4.0,8.0,55,0.00,,---,0.00,VWS V14.01,2013-03-04 17:05:00,
2013-03-04 12:06:00,37.7,22.6,30.09,South,172,2.0,8.0,54,0.00,,---,0.00,VWS V14.01,2013-03-04 17:06:00,
2013-03-04 12:07:00,37.7,22.6,30.09,SSE,153,6.0,6.0,54,0.00,,---,0.00,VWS V14.01,2013-03-04 17:07:00,
2013-03-04 12:08:00,35.7,23.6,30.11,SSE,165,5.0,7.0,61,0.00,,---,0.00,VWS V14.01,2013-03-04 17:08:00,
2013-03-04 12:09:00,37.8,23.1,30.09,South,181,4.0,5.0,55,0.00,,---,0.00,VWS V14.01,2013-03-04 17:09:00,
2013-03-04 12:10:00,37.9,23.6,30.09,SSE,150,5.0,6.0,56,0.00,,---,0.00,VWS V14.01,2013-03-04 17:10:00,
2013-03-04 12:11:00,38.0,23.3,30.08,SSE,164,2.0,10.0,55,0.00,,---,0.00,VWS V14.01,2013-03-04 17:11:00,
2013-03-04 12:12:00,38.0,23.3,30.08,SSE,159,6.0,6.0,55,0.00,,---,0.00,VWS V14.01,2013-03-04 17:12:00,
2013-03-04 12:13:00,35.8,22.9,30.11,South,173,5.0,5.0,59,0.00,,---,0.00,VWS V14.01,2013-03-04 17:13:00,
2013-03-04 12:14:00,38.1,22.9,30.08,SE,143,0.0,1.0,54,0.00,,---,0.00,VWS V14.01,2013-03-04 17:14:00,
2013-03-04 12:15:00,38.2,23.9,30.08,SSE,147,0.0,1.0,56,0.00,,---,0.00,VWS V14.01,2013-03-04 17:15:00,
2013-03-04 12:16:00,38.3,24.4,30.08,South,174,2.0,4.0,57,0.00,,---,0.00,VWS V14.01,2013-03-04 17:16:00,
2013-03-04 12:17:00,38.4,24.1,30.08,South,171,1.0,5.0,56,0.00,,---,0.00,VWS V14.01,2013-03-04 17:17:00,
2013-03-04 12:18:00,36.0,23.5,30.11,SSE,167,0.0,1.0,60,0.00,,---,0.00,VWS V14.01,2013-03-04 17:18:00,
2013-03-04 12:19:00,38.7,23.5,30.08,SSW,194,2.0,4.0,54,0.00,,---,0.00,VWS V14.01,2013-03-04 17:19:00,
2013-03-04 12:21:00,38.8,23.1,30.08,SSE,150,1.0,6.0,53,0.00,,---,0.00,VWS V14.01,2013-03-04 17:21:00,
2013-03-04 12:22:00,38.8,23.6,30.08,South,173,1.0,5.0,54,0.00,,---,0.00,VWS V14.01,2013-03-04 17:22:00,
2013-03-04 12:23:00,38.8,23.6,30.08,South,169,0.0,2.0,54,0.00,,---,0.00,VWS V14.01,2013-03-04 17:23:00,
2013-03-04 12:24:00,36.6,24.4,30.10,South,175,4.0,7.0,61,0.00,,---,0.00,VWS V14.01,2013-03-04 17:24:00,
2013-03-04 12:25:00,38.9,24.6,30.08,South,186,0.0,2.0,56,0.00,,---,0.00,VWS V14.01,2013-03-04 17:25:00,
2013-03-04 12:26:00,39.0,23.8,30.08,ESE,121,1.0,2.0,54,0.00,,---,0.00,VWS V14.01,2013-03-04 17:26:00,
2013-03-04 12:27:00,39.0,23.8,30.07,SSE,154,5.0,6.0,54,0.00,,---,0.00,VWS V14.01,2013-03-04 17:27:00,
2013-03-04 12:28:00,39.0,23.3,30.07,East,99,7.0,7.0,53,0.00,,---,0.00,VWS V14.01,2013-03-04 17:28:00,
2013-03-04 12:29:00,36.8,23.4,30.10,SE,134,4.0,5.0,58,0.00,,---,0.00,VWS V14.01,2013-03-04 17:29:00,
2013-03-04 12:30:00,39.2,23.5,30.07,SSE,153,4.0,5.0,53,0.00,,---,0.00,VWS V14.01,2013-03-04 17:30:00,
2013-03-04 12:31:00,39.2,24.0,30.07,South,191,4.0,5.0,54,0.00,,---,0.00,VWS V14.01,2013-03-04 17:31:00,
2013-03-04 12:32:00,39.3,23.6,30.07,SW,223,2.0,4.0,53,0.00,,---,0.00,VWS V14.01,2013-03-04 17:32:00,
2013-03-04 12:33:00,39.3,22.7,30.07,South,188,0.0,2.0,51,0.00,,---,0.00,VWS V14.01,2013-03-04 17:33:00,
2013-03-04 12:34:00,37.0,24.0,30.10,SSE,159,0.0,2.0,59,0.00,,---,0.00,VWS V14.01,2013-03-04 17:34:00,
2013-03-04 12:35:00,39.4,23.7,30.07,South,187,1.0,4.0,53,0.00,,---,0.00,VWS V14.01,2013-03-04 17:35:00,
2013-03-04 12:36:00,39.5,23.4,30.07,SE,132,6.0,6.0,52,0.00,,---,0.00,VWS V14.01,2013-03-04 17:36:00,
2013-03-04 12:37:00,39.5,23.4,30.07,ESE,123,1.0,6.0,52,0.00,,---,0.00,VWS V14.01,2013-03-04 17:37:00,
2013-03-04 12:38:00,39.6,23.9,30.07,South,169,2.0,5.0,53,0.00,,---,0.00,VWS V14.01,2013-03-04 17:38:00,
2013-03-04 12:39:00,37.0,24.0,30.10,SSE,148,7.0,9.0,59,0.00,,---,0.00,VWS V14.01,2013-03-04 17:39:00,
2013-03-04 12:40:00,39.7,24.0,30.07,SSE,148,2.0,7.0,53,0.00,,---,0.00,VWS V14.01,2013-03-04 17:40:00,
2013-03-04 12:41:00,39.7,23.5,30.07,South,190,3.0,5.0,52,0.00,,---,0.00,VWS V14.01,2013-03-04 17:41:00,
2013-03-04 12:42:00,39.6,23.0,30.07,South,190,0.0,3.0,51,0.00,,---,0.00,VWS V14.01,2013-03-04 17:42:00,
2013-03-04 12:43:00,39.6,23.4,30.07,SSE,163,1.0,2.0,52,0.00,,---,0.00,VWS V14.01,2013-03-04 17:43:00,
2013-03-04 12:44:00,37.2,22.5,30.10,SE,131,2.0,4.0,55,0.00,,---,0.00,VWS V14.01,2013-03-04 17:44:00,
2013-03-04 12:45:00,39.7,24.0,30.07,West,261,4.0,7.0,53,0.00,,---,0.00,VWS V14.01,2013-03-04 17:45:00,
2013-03-04 12:46:00,39.7,23.1,30.06,SE,143,6.0,6.0,51,0.00,,---,0.00,VWS V14.01,2013-03-04 17:46:00,
2013-03-04 12:47:00,39.7,23.5,30.06,SSE,152,0.0,7.0,52,0.00,,---,0.00,VWS V14.01,2013-03-04 17:47:00,
2013-03-04 12:48:00,39.8,25.0,30.06,WSW,256,2.0,3.0,55,0.00,,---,0.00,VWS V14.01,2013-03-04 17:48:00,
2013-03-04 12:49:00,39.9,24.2,30.06,South,189,3.0,3.0,53,0.00,,---,0.00,VWS V14.01,2013-03-04 17:49:00,
2013-03-04 12:50:00,37.3,23.5,30.09,SSE,147,6.0,6.0,57,0.00,,---,0.00,VWS V14.01,2013-03-04 17:50:00,
2013-03-04 12:51:00,40.0,23.8,30.06,SSE,162,1.0,7.0,52,0.00,,---,0.00,VWS V14.01,2013-03-04 17:51:00,
2013-03-04 12:52:00,40.0,24.3,30.06,South,181,0.0,2.0,53,0.00,,---,0.00,VWS V14.01,2013-03-04 17:52:00,
2013-03-04 12:53:00,40.0,23.8,30.06,SSE,149,7.0,9.0,52,0.00,,---,0.00,VWS V14.01,2013-03-04 17:53:00,
2013-03-04 12:54:00,40.0,23.4,30.06,SSE,168,1.0,7.0,51,0.00,,---,0.00,VWS V14.01,2013-03-04 17:54:00,
2013-03-04 12:55:00,37.7,24.7,30.09,South,188,2.0,5.0,59,0.00,,---,0.00,VWS V14.01,2013-03-04 17:55:00,
2013-03-04 12:56:00,40.0,23.8,30.06,SE,127,7.0,10.0,52,0.00,,---,0.00,VWS V14.01,2013-03-04 17:56:00,
2013-03-04 12:57:00,39.9,22.8,30.06,SE,142,5.0,8.0,50,0.00,,---,0.00,VWS V14.01,2013-03-04 17:57:00,
2013-03-04 12:58:00,39.9,23.2,30.06,South,182,1.0,5.0,51,0.00,,---,0.00,VWS V14.01,2013-03-04 17:58:00,
2013-03-04 12:59:00,39.9,22.8,30.06,South,182,1.0,3.0,50,0.00,,---,0.00,VWS V14.01,2013-03-04 17:59:00,
2013-03-04 13:00:00,39.9,22.8,30.06,South,182,1.0,2.0,50,0.00,,---,0.00,VWS V14.01,2013-03-04 18:00:00,
2013-03-04 13:01:00,37.7,22.6,30.09,SE,132,6.0,6.0,54,0.00,,---,0.00,VWS V14.01,2013-03-04 18:01:00,
2013-03-04 13:02:00,40.0,23.4,30.06,South,177,0.0,4.0,51,0.00,,---,0.00,VWS V14.01,2013-03-04 18:02:00,
2013-03-04 13:03:00,40.0,24.7,30.06,SSE,164,5.0,5.0,54,0.00,,---,0.00,VWS V14.01,2013-03-04 18:03:00,
2013-03-04 13:04:00,40.1,23.4,30.06,South,170,4.0,6.0,51,0.00,,---,0.00,VWS V14.01,2013-03-04 18:04:00,
2013-03-04 13:05:00,40.2,24.5,30.06,SSE,154,0.0,4.0,53,0.00,,---,0.00,VWS V14.01,2013-03-04 18:05:00,
2013-03-04 13:06:00,37.7,22.6,30.09,SSE,153,6.0,6.0,54,0.00,,---,0.00,VWS V14.01,2013-03-04 18:06:00,
2013-03-04 13:07:00,40.4,24.2,30.05,South,182,1.0,7.0,52,0.00,,---,0.00,VWS V14.01,2013-03-04 18:07:00,
2013-03-04 13:08:00,40.5,24.7,30.06,SSW,203,3.0,5.0,53,0.00,,---,0.00,VWS V14.01,2013-03-04 18:08:00,
2013-03-04 13:09:00,40.6,23.9,30.05,SSW,194,5.0,5.0,51,0.00,,---,0.00,VWS V14.01,2013-03-04 18:09:00,
2013-03-04 13:10:00,40.6,23.0,30.05,South,180,2.0,5.0,49,0.00,,---,0.00,VWS V14.01,2013-03-04 18:10:00,
2013-03-04 13:11:00,38.0,23.3,30.08,SSE,159,6.0,6.0,55,0.00,,---,0.00,VWS V14.01,2013-03-04 18:11:00,
2013-03-04 13:12:00,40.5,22.9,30.05,SE,144,0.0,7.0,49,0.00,,---,0.00,VWS V14.01,2013-03-04 18:12:00,
2013-03-04 13:13:00,40.5,22.9,30.05,SW,223,2.0,3.0,49,0.00,,---,0.00,VWS V14.01,2013-03-04 18:13:00,
2013-03-04 13:14:00,40.5,23.8,30.05,SSE,157,4.0,6.0,51,0.00,,---,0.00,VWS V14.01,2013-03-04 18:14:00,
2013-03-04 13:15:00,40.5,22.9,30.05,SSE,153,1.0,5.0,49,0.00,,---,0.00,VWS V14.01,2013-03-04 18:15:00,
2013-03-04 13:16:00,38.4,24.1,30.08,South,171,1.0,5.0,56,0.00,,---,0.00,VWS V14.01,2013-03-04 18:16:00,
2013-03-04 13:17:00,40.4,22.8,30.05,SSE,150,2.0,2.0,49,0.00,,---,0.00,VWS V14.01,2013-03-04 18:17:00,
2013-03-04 13:19:00,40.4,24.2,30.05,SE,140,0.0,5.0,52,0.00,,---,0.00,VWS V14.01,2013-03-04 18:19:00,
2013-03-04 13:20:00,40.4,23.7,30.05,SSW,198,0.0,1.0,51,0.00,,---,0.00,VWS V14.01,2013-03-04 18:20:00,
2013-03-04 13:21:00,38.8,23.6,30.08,South,173,1.0,5.0,54,0.00,,---,0.00,VWS V14.01,2013-03-04 18:21:00,
2013-03-04 13:22:00,40.6,23.4,30.05,SSE,150,0.0,4.0,50,0.00,,---,0.00,VWS V14.01,2013-03-04 18:22:00,
2013-03-04 13:23:00,40.6,23.9,30.05,SSE,159,1.0,2.0,51,0.00,,---,0.00,VWS V14.01,2013-03-04 18:23:00,
2013-03-04 13:24:00,40.6,23.4,30.05,WSW,252,0.0,2.0,50,0.00,,---,0.00,VWS V14.01,2013-03-04 18:24:00,
2013-03-04 13:25:00,40.6,23.4,30.05,South,171,5.0,6.0,50,0.00,,---,0.00,VWS V14.01,2013-03-04 18:25:00,
2013-03-04 13:26:00,39.0,23.8,30.07,SSE,154,5.0,6.0,54,0.00,,---,0.00,VWS V14.01,2013-03-04 18:26:00,
2013-03-04 13:27:00,40.7,23.5,30.05,South,176,5.0,10.0,50,0.01,,---,0.01,VWS V14.01,2013-03-04 18:27:00,
2013-03-04 13:28:00,40.7,24.0,30.04,SSE,153,2.0,8.0,51,0.01,,---,0.01,VWS V14.01,2013-03-04 18:28:00,
2013-03-04 13:29:00,39.2,23.5,30.07,SSE,153,4.0,5.0,53,0.00,,---,0.00,VWS V14.01,2013-03-04 18:29:00,
2013-03-04 13:30:00,39.2,24.0,30.07,South,191,4.0,5.0,54,0.00,,---,0.00,VWS V14.01,2013-03-04 18:30:00,
2013-03-04 13:31:00,40.7,23.5,30.05,SSE,157,2.0,5.0,50,0.01,,---,0.01,VWS V14.01,2013-03-04 18:31:00,
2013-03-04 13:32:00,39.3,22.7,30.07,South,188,0.0,2.0,51,0.00,,---,0.00,VWS V14.01,2013-03-04 18:32:00,
2013-03-04 13:33:00,40.8,24.5,30.04,SSE,150,4.0,6.0,52,0.01,,---,0.01,VWS V14.01,2013-03-04 18:33:00,
2013-03-04 13:34:00,40.9,25.5,30.04,SSE,162,1.0,4.0,54,0.01,,---,0.01,VWS V14.01,2013-03-04 18:34:00,
2013-03-04 13:35:00,41.1,25.3,30.04,South,190,2.0,4.0,53,0.01,,---,0.01,VWS V14.01,2013-03-04 18:35:00,
2013-03-04 13:36:00,41.2,24.5,30.04,SSW,198,4.0,5.0,51,0.01,,---,0.01,VWS V14.01,2013-03-04 18:36:00,
2013-03-04 13:37:00,39.6,23.9,30.07,South,169,2.0,5.0,53,0.00,,---,0.00,VWS V14.01,2013-03-04 18:37:00,
2013-03-04 13:38:00,41.3,25.0,30.04,SE,142,5.0,9.0,52,0.01,,---,0.01,VWS V14.01,2013-03-04 18:38:00,
2013-03-04 13:39:00,41.3,24.1,30.04,South,169,1.0,7.0,50,0.01,,---,0.01,VWS V14.01,2013-03-04 18:39:00,
2013-03-04 13:40:00,41.3,23.6,30.04,South,174,0.0,5.0,49,0.01,,---,0.01,VWS V14.01,2013-03-04 18:40:00,
2013-03-04 13:41:00,41.2,24.0,30.04,South,184,2.0,5.0,50,0.01,,---,0.01,VWS V14.01,2013-03-04 18:41:00,
2013-03-04 13:42:00,39.6,23.4,30.07,SSE,163,1.0,2.0,52,0.00,,---,0.00,VWS V14.01,2013-03-04 18:42:00,
2013-03-04 13:43:00,41.1,23.9,30.04,SSW,203,5.0,5.0,50,0.01,,---,0.01,VWS V14.01,2013-03-04 18:43:00,
2013-03-04 13:44:00,41.1,23.4,30.04,SSE,164,4.0,6.0,49,0.01,,---,0.01,VWS V14.01,2013-03-04 18:44:00,
2013-03-04 13:45:00,41.0,23.3,30.04,South,175,1.0,6.0,49,0.01,,---,0.01,VWS V14.01,2013-03-04 18:45:00,
2013-03-04 13:46:00,41.0,23.3,30.04,South,179,0.0,1.0,49,0.01,,---,0.01,VWS V14.01,2013-03-04 18:46:00,
2013-03-04 13:47:00,39.8,25.0,30.06,WSW,256,2.0,3.0,55,0.00,,---,0.00,VWS V14.01,2013-03-04 18:47:00,
2013-03-04 13:48:00,41.0,23.8,30.04,South,171,0.0,4.0,50,0.01,,---,0.01,VWS V14.01,2013-03-04 18:48:00,
2013-03-04 13:49:00,41.0,24.3,30.04,South,179,1.0,4.0,51,0.01,,---,0.01,VWS V14.01,2013-03-04 18:49:00,
2013-03-04 13:50:00,41.0,23.8,30.04,South,180,0.0,1.0,50,0.01,,---,0.01,VWS V14.01,2013-03-04 18:50:00,
2013-03-04 13:51:00,41.1,24.4,30.04,SSW,198,2.0,2.0,51,0.01,,---,0.01,VWS V14.01,2013-03-04 18:51:00,
2013-03-04 13:52:00,40.0,23.8,30.06,SSE,149,7.0,9.0,52,0.00,,---,0.00,VWS V14.01,2013-03-04 18:52:00,
2013-03-04 13:53:00,41.2,24.9,30.04,SSW,192,4.0,4.0,52,0.01,,---,0.01,VWS V14.01,2013-03-04 18:53:00,
2013-03-04 13:54:00,41.2,24.5,30.04,SSW,194,0.0,5.0,51,0.01,,---,0.01,VWS V14.01,2013-03-04 18:54:00,
2013-03-04 13:55:00,41.2,23.5,30.04,SSE,165,4.0,6.0,49,0.01,,---,0.01,VWS V14.01,2013-03-04 18:55:00,
2013-03-04 13:56:00,41.2,24.0,30.04,South,182,4.0,6.0,50,0.01,,---,0.01,VWS V14.01,2013-03-04 18:56:00,
2013-03-04 13:57:00,39.9,23.3,30.06,South,182,1.0,5.0,51,0.00,,---,0.00,VWS V14.01,2013-03-04 18:57:00,
2013-03-04 13:58:00,41.1,23.9,30.04,South,184,2.0,3.0,50,0.01,,---,0.01,VWS V14.01,2013-03-04 18:58:00,
2013-03-04 13:59:00,41.1,23.9,30.04,South,184,1.0,3.0,50,0.01,,---,0.01,VWS V14.01,2013-03-04 18:59:00,
2013-03-04 14:00:00,41.1,23.4,30.04,South,184,2.0,3.0,49,0.01,,---,0.01,VWS V14.01,2013-03-04 19:00:00,
2013-03-04 14:01:00,41.0,22.8,30.04,South,184,1.0,3.0,48,0.01,,---,0.01,VWS V14.01,2013-03-04 19:01:00,
2013-03-04 14:02:00,40.0,24.7,30.06,SSE,164,5.0,5.0,54,0.00,,---,0.00,VWS V14.01,2013-03-04 19:02:00,
2013-03-04 14:03:00,41.0,24.3,30.04,SSE,164,4.0,5.0,51,0.01,,---,0.01,VWS V14.01,2013-03-04 19:03:00,
2013-03-04 14:04:00,41.0,24.3,30.04,South,182,3.0,6.0,51,0.01,,---,0.01,VWS V14.01,2013-03-04 19:04:00,
2013-03-04 14:05:00,41.0,23.3,30.04,SSE,164,6.0,6.0,49,0.01,,---,0.01,VWS V14.01,2013-03-04 19:05:00,
2013-03-04 14:06:00,41.0,23.8,30.04,South,174,2.0,6.0,50,0.01,,---,0.01,VWS V14.01,2013-03-04 19:06:00,
2013-03-04 14:07:00,40.5,24.7,30.06,SSW,203,3.0,5.0,53,0.00,,---,0.00,VWS V14.01,2013-03-04 19:07:00,
2013-03-04 14:08:00,40.9,23.7,30.04,SSW,192,2.0,4.0,50,0.01,,---,0.01,VWS V14.01,2013-03-04 19:08:00,
2013-03-04 14:09:00,40.9,23.7,30.04,SE,141,4.0,4.0,50,0.01,,---,0.01,VWS V14.01,2013-03-04 19:09:00,
2013-03-04 14:10:00,40.9,23.7,30.04,SSE,148,4.0,6.0,50,0.01,,---,0.01,VWS V14.01,2013-03-04 19:10:00,
2013-03-04 14:11:00,40.9,23.2,30.04,SSE,150,1.0,4.0,49,0.01,,---,0.01,VWS V14.01,2013-03-04 19:11:00,
2013-03-04 14:12:00,40.5,22.9,30.05,SW,223,2.0,3.0,49,0.00,,---,0.00,VWS V14.01,2013-03-04 19:12:00,
2013-03-04 14:13:00,40.9,25.1,30.03,SSE,152,5.0,11.0,53,0.01,,---,0.01,VWS V14.01,2013-03-04 19:13:00,
2013-03-04 14:14:00,41.0,23.3,30.03,SE,142,7.0,7.0,49,0.01,,---,0.01,VWS V14.01,2013-03-04 19:14:00,
2013-03-04 14:15:00,41.0,23.3,30.03,SSE,150,5.0,7.0,49,0.01,,---,0.01,VWS V14.01,2013-03-04 19:15:00,
2013-03-04 14:16:00,41.1,23.4,30.03,South,180,3.0,5.0,49,0.01,,---,0.01,VWS V14.01,2013-03-04 19:16:00,
2013-03-04 14:17:00,40.4,23.7,30.05,SSE,163,4.0,6.0,51,0.00,,---,0.00,VWS V14.01,2013-03-04 19:17:00,
2013-03-04 14:18:00,41.1,23.9,30.03,SE,142,6.0,7.0,50,0.01,,---,0.01,VWS V14.01,2013-03-04 19:18:00,
2013-03-04 14:19:00,41.2,23.5,30.03,South,173,1.0,6.0,49,0.01,,---,0.01,VWS V14.01,2013-03-04 19:19:00,
2013-03-04 14:20:00,41.2,23.0,30.03,ESE,123,5.0,5.0,48,0.01,,---,0.01,VWS V14.01,2013-03-04 19:20:00,
2013-03-04 14:21:00,41.2,23.0,30.03,SSE,153,5.0,7.0,48,0.01,,---,0.01,VWS V14.01,2013-03-04 19:21:00,
2013-03-04 14:22:00,40.6,23.9,30.05,SSE,159,1.0,2.0,51,0.00,,---,0.00,VWS V14.01,2013-03-04 19:22:00,
2013-03-04 14:23:00,41.3,25.0,30.03,South,174,2.0,7.0,52,0.01,,---,0.01,VWS V14.01,2013-03-04 19:23:00,
2013-03-04 14:24:00,41.4,23.7,30.03,SSE,155,0.0,7.0,49,0.01,,---,0.01,VWS V14.01,2013-03-04 19:24:00,
2013-03-04 14:25:00,41.5,24.3,30.03,SE,136,5.0,5.0,50,0.01,,---,0.01,VWS V14.01,2013-03-04 19:25:00,
2013-03-04 14:26:00,41.5,24.3,30.03,South,175,4.0,8.0,50,0.01,,---,0.01,VWS V14.01,2013-03-04 19:26:00,
2013-03-04 14:27:00,40.7,24.0,30.04,SSE,153,2.0,8.0,51,0.01,,---,0.01,VWS V14.01,2013-03-04 19:27:00,
2013-03-04 14:28:00,41.5,23.8,30.03,South,184,2.0,4.0,49,0.00,,---,0.01,VWS V14.01,2013-03-04 19:28:00,
2013-03-04 14:29:00,41.5,24.3,30.03,SE,142,2.0,4.0,50,0.00,,---,0.01,VWS V14.01,2013-03-04 19:29:00,
2013-03-04 14:30:00,41.5,24.3,30.03,SSE,161,6.0,6.0,50,0.00,,---,0.01,VWS V14.01,2013-03-04 19:30:00,
2013-03-04 14:31:00,41.5,24.3,30.03,SE,136,4.0,7.0,50,0.00,,---,0.01,VWS V14.01,2013-03-04 19:31:00,
2013-03-04 14:32:00,40.8,24.5,30.04,SSE,150,4.0,6.0,52,0.01,,---,0.01,VWS V14.01,2013-03-04 19:32:00,
2013-03-04 14:33:00,41.5,23.8,30.03,SE,141,1.0,7.0,49,0.00,,---,0.01,VWS V14.01,2013-03-04 19:33:00,
2013-03-04 14:34:00,41.4,23.7,30.03,SSE,159,6.0,6.0,49,0.00,,---,0.01,VWS V14.01,2013-03-04 19:34:00,
2013-03-04 14:35:00,41.4,24.2,30.03,SSE,153,7.0,7.0,50,0.00,,---,0.01,VWS V14.01,2013-03-04 19:35:00,
2013-03-04 14:36:00,41.4,24.2,30.03,SSW,194,4.0,8.0,50,0.00,,---,0.01,VWS V14.01,2013-03-04 19:36:00,
2013-03-04 14:37:00,41.3,25.0,30.04,SE,142,5.0,9.0,52,0.01,,---,0.01,VWS V14.01,2013-03-04 19:37:00,
2013-03-04 14:38:00,41.4,23.7,30.03,South,176,4.0,6.0,49,0.00,,---,0.01,VWS V14.01,2013-03-04 19:38:00,
2013-03-04 14:39:00,41.3,23.6,30.03,South,176,0.0,4.0,49,0.00,,---,0.01,VWS V14.01,2013-03-04 19:39:00,
2013-03-04 14:40:00,41.3,24.1,30.03,SSE,167,5.0,5.0,50,0.00,,---,0.01,VWS V14.01,2013-03-04 19:40:00,
2013-03-04 14:41:00,41.3,24.1,30.03,SSE,165,2.0,5.0,50,0.00,,---,0.01,VWS V14.01,2013-03-04 19:41:00,
2013-03-04 14:42:00,41.1,23.9,30.04,SSW,203,5.0,5.0,50,0.01,,---,0.01,VWS V14.01,2013-03-04 19:42:00,
2013-03-04 14:43:00,41.2,23.5,30.03,SE,142,0.0,4.0,49,0.00,,---,0.01,VWS V14.01,2013-03-04 19:43:00,
2013-03-04 14:44:00,41.2,23.5,30.03,SSE,149,0.0,4.0,49,0.00,,---,0.01,VWS V14.01,2013-03-04 19:44:00,
2013-03-04 14:45:00,41.1,23.9,30.03,South,173,2.0,2.0,50,0.00,,---,0.01,VWS V14.01,2013-03-04 19:45:00,
2013-03-04 14:46:00,41.1,23.9,30.02,SSE,157,1.0,6.0,50,0.00,,---,0.01,VWS V14.01,2013-03-04 19:46:00,
2013-03-04 14:47:00,41.0,23.8,30.04,South,171,0.0,4.0,50,0.01,,---,0.01,VWS V14.01,2013-03-04 19:47:00,
2013-03-04 14:48:00,41.1,23.9,30.02,SE,138,1.0,1.0,50,0.00,,---,0.01,VWS V14.01,2013-03-04 19:48:00,
2013-03-04 14:49:00,41.1,24.4,30.02,South,171,2.0,5.0,51,0.00,,---,0.01,VWS V14.01,2013-03-04 19:49:00,
2013-03-04 14:50:00,41.1,23.9,30.02,South,172,0.0,4.0,50,0.00,,---,0.01,VWS V14.01,2013-03-04 19:50:00,
2013-03-04 14:51:00,41.1,24.8,30.02,South,175,2.0,4.0,52,0.00,,---,0.01,VWS V14.01,2013-03-04 19:51:00,
2013-03-04 14:52:00,41.2,24.9,30.04,SSW,192,4.0,4.0,52,0.01,,---,0.01,VWS V14.01,2013-03-04 19:52:00,
2013-03-04 14:53:00,41.1,24.8,30.02,SSE,159,0.0,5.0,52,0.00,,---,0.01,VWS V14.01,2013-03-04 19:53:00,
2013-03-04 14:54:00,41.0,23.8,30.02,SSE,162,2.0,5.0,50,0.00,,---,0.01,VWS V14.01,2013-03-04 19:54:00,
2013-03-04 14:55:00,41.0,23.8,30.02,SE,138,5.0,8.0,50,0.00,,---,0.01,VWS V14.01,2013-03-04 19:55:00,
2013-03-04 14:57:00,41.1,23.9,30.04,South,184,2.0,3.0,50,0.01,,---,0.01,VWS V14.01,2013-03-04 19:57:00,
2013-03-04 14:58:00,41.0,23.8,30.02,South,173,2.0,7.0,50,0.00,,---,0.01,VWS V14.01,2013-03-04 19:58:00,
2013-03-04 15:01:00,41.0,23.8,30.02,SE,138,2.0,8.0,50,0.00,,---,0.01,VWS V14.01,2013-03-04 20:01:00,
2013-03-04 15:02:00,41.0,24.3,30.04,SSE,164,4.0,5.0,51,0.01,,---,0.01,VWS V14.01,2013-03-04 20:02:00,
2013-03-04 15:03:00,41.1,23.9,30.02,SE,146,0.0,6.0,50,0.00,,---,0.01,VWS V14.01,2013-03-04 20:03:00,
2013-03-04 15:04:00,41.1,23.9,30.02,SSE,147,1.0,5.0,50,0.00,,---,0.01,VWS V14.01,2013-03-04 20:04:00,
2013-03-04 15:05:00,41.1,23.9,30.02,SE,142,4.0,5.0,50,0.00,,---,0.01,VWS V14.01,2013-03-04 20:05:00,
2013-03-04 15:06:00,41.2,24.0,30.02,SE,142,1.0,4.0,50,0.00,,---,0.01,VWS V14.01,2013-03-04 20:06:00,
2013-03-04 15:07:00,40.9,23.7,30.04,SSW,192,2.0,4.0,50,0.01,,---,0.01,VWS V14.01,2013-03-04 20:07:00,
2013-03-04 15:08:00,41.3,25.0,30.02,SE,143,1.0,2.0,52,0.00,,---,0.01,VWS V14.01,2013-03-04 20:08:00,
2013-03-04 15:09:00,41.4,25.6,30.02,SSE,165,6.0,8.0,53,0.00,,---,0.01,VWS V14.01,2013-03-04 20:09:00,
2013-03-04 15:10:00,41.4,24.2,30.02,SE,142,7.0,10.0,50,0.00,,---,0.01,VWS V14.01,2013-03-04 20:10:00,
2013-03-04 15:11:00,41.5,23.8,30.02,SE,144,6.0,9.0,49,0.00,,---,0.01,VWS V14.01,2013-03-04 20:11:00,
2013-03-04 15:12:00,40.9,25.1,30.03,SSE,152,5.0,11.0,53,0.01,,---,0.01,VWS V14.01,2013-03-04 20:12:00,
2013-03-04 15:13:00,41.5,23.8,30.02,SSE,148,4.0,5.0,49,0.00,,---,0.01,VWS V14.01,2013-03-04 20:13:00,
2013-03-04 15:14:00,41.4,23.7,30.01,SSE,160,5.0,7.0,49,0.00,,---,0.01,VWS V14.01,2013-03-04 20:14:00,
2013-03-04 15:15:00,41.5,24.3,30.01,SSE,159,2.0,6.0,50,0.00,,---,0.01,VWS V14.01,2013-03-04 20:15:00,
2013-03-04 15:16:00,41.5,23.8,30.01,SSE,160,1.0,2.0,49,0.00,,---,0.01,VWS V14.01,2013-03-04 20:16:00,
2013-03-04 15:17:00,41.1,23.9,30.03,SE,142,6.0,7.0,50,0.01,,---,0.01,VWS V14.01,2013-03-04 20:17:00,
2013-03-04 15:19:00,41.5,24.3,30.01,SSE,163,4.0,10.0,50,0.00,,---,0.01,VWS V14.01,2013-03-04 20:19:00,
2013-03-04 15:20:00,41.6,24.4,30.01,South,183,0.0,5.0,50,0.00,,---,0.01,VWS V14.01,2013-03-04 20:20:00,
2013-03-04 15:21:00,41.6,25.3,30.01,South,177,5.0,5.0,52,0.00,,---,0.01,VWS V14.01,2013-03-04 20:21:00,
2013-03-04 15:22:00,41.3,25.0,30.03,South,174,2.0,7.0,52,0.01,,---,0.01,VWS V14.01,2013-03-04 20:22:00,
2013-03-04 15:23:00,41.6,24.4,30.01,SSE,148,5.0,7.0,50,0.00,,---,0.01,VWS V14.01,2013-03-04 20:23:00,
2013-03-04 15:24:00,41.5,24.3,30.01,SSE,165,1.0,9.0,50,0.00,,---,0.01,VWS V14.01,2013-03-04 20:24:00,
2013-03-04 15:25:00,41.5,23.8,30.01,South,175,2.0,6.0,49,0.00,,---,0.01,VWS V14.01,2013-03-04 20:25:00,
2013-03-04 15:26:00,41.4,24.2,30.01,South,171,1.0,4.0,50,0.00,,---,0.01,VWS V14.01,2013-03-04 20:26:00,
2013-03-04 15:27:00,41.5,23.8,30.03,South,184,2.0,4.0,49,0.00,,---,0.01,VWS V14.01,2013-03-04 20:27:00,
2013-03-04 15:28:00,41.3,24.1,30.01,South,173,4.0,7.0,50,0.00,,---,0.01,VWS V14.01,2013-03-04 20:28:00,
2013-03-04 15:29:00,41.3,24.5,30.01,South,177,4.0,5.0,51,0.00,,---,0.01,VWS V14.01,2013-03-04 20:29:00,
2013-03-04 15:30:00,41.3,24.5,30.01,ESE,120,5.0,6.0,51,0.00,,---,0.01,VWS V14.01,2013-03-04 20:30:00,
2013-03-04 15:31:00,41.3,24.5,30.01,SE,143,6.0,6.0,51,0.00,,---,0.01,VWS V14.01,2013-03-04 20:31:00,
2013-03-04 15:32:00,41.5,23.8,30.03,SE,141,1.0,7.0,49,0.00,,---,0.01,VWS V14.01,2013-03-04 20:32:00,
2013-03-04 15:33:00,41.3,24.1,30.01,SSE,151,6.0,6.0,50,0.00,,---,0.01,VWS V14.01,2013-03-04 20:33:00,
2013-03-04 15:34:00,41.3,24.1,30.01,SSE,148,1.0,7.0,50,0.00,,---,0.01,VWS V14.01,2013-03-04 20:34:00,
2013-03-04 15:35:00,41.3,24.5,30.01,SSE,148,5.0,5.0,51,0.00,,---,0.01,VWS V14.01,2013-03-04 20:35:00,
2013-03-04 15:36:00,41.3,24.5,30.01,SSE,153,1.0,5.0,51,0.00,,---,0.01,VWS V14.01,2013-03-04 20:36:00,
2013-03-04 15:37:00,41.4,23.7,30.03,South,176,4.0,6.0,49,0.00,,---,0.01,VWS V14.01,2013-03-04 20:37:00,
2013-03-04 15:38:00,41.3,24.5,30.01,SE,136,7.0,7.0,51,0.00,,---,0.01,VWS V14.01,2013-03-04 20:38:00,
2013-03-04 15:39:00,41.2,24.0,30.01,SE,144,1.0,8.0,50,0.00,,---,0.01,VWS V14.01,2013-03-04 20:39:00,
2013-03-04 15:40:00,41.3,24.1,30.01,South,190,3.0,6.0,50,0.00,,---,0.01,VWS V14.01,2013-03-04 20:40:00,
2013-03-04 15:41:00,41.2,24.0,30.01,SSE,154,0.0,4.0,50,0.00,,---,0.01,VWS V14.01,2013-03-04 20:41:00,
2013-03-04 15:42:00,41.2,23.5,30.03,SE,142,0.0,4.0,49,0.00,,---,0.01,VWS V14.01,2013-03-04 20:42:00,
2013-03-04 15:43:00,41.2,24.9,30.01,SSE,165,0.0,4.0,52,0.00,,---,0.01,VWS V14.01,2013-03-04 20:43:00,
2013-03-04 15:44:00,41.2,25.4,30.01,SSE,161,1.0,4.0,53,0.00,,---,0.01,VWS V14.01,2013-03-04 20:44:00,
2013-03-04 15:45:00,41.2,24.9,30.01,SE,140,4.0,4.0,52,0.00,,---,0.01,VWS V14.01,2013-03-04 20:45:00,
2013-03-04 15:46:00,41.2,24.9,30.01,South,171,0.0,7.0,52,0.00,,---,0.01,VWS V14.01,2013-03-04 20:46:00,
2013-03-04 15:47:00,41.1,23.9,30.02,SE,138,1.0,1.0,50,0.00,,---,0.01,VWS V14.01,2013-03-04 20:47:00,
2013-03-04 15:48:00,41.2,24.5,30.01,SSE,151,0.0,7.0,51,0.00,,---,0.01,VWS V14.01,2013-03-04 20:48:00,
2013-03-04 15:49:00,41.2,24.5,30.01,SSE,158,5.0,5.0,51,0.00,,---,0.01,VWS V14.01,2013-03-04 20:49:00,
2013-03-04 15:50:00,41.2,24.5,30.01,SSE,164,0.0,5.0,51,0.00,,---,0.01,VWS V14.01,2013-03-04 20:50:00,
2013-03-04 15:51:00,41.3,25.0,30.01,SSE,164,0.0,0.0,52,0.00,,---,0.01,VWS V14.01,2013-03-04 20:51:00,
2013-03-04 15:52:00,41.1,24.8,30.02,SSE,159,0.0,5.0,52,0.00,,---,0.01,VWS V14.01,2013-03-04 20:52:00,
2013-03-04 15:53:00,41.3,25.5,30.01,SSE,161,1.0,2.0,53,0.00,,---,0.01,VWS V14.01,2013-03-04 20:53:00,
2013-03-04 15:54:00,41.4,25.6,30.01,SSE,148,5.0,7.0,53,0.00,,---,0.01,VWS V14.01,2013-03-04 20:54:00,
2013-03-04 15:55:00,41.4,25.1,30.01,SE,136,9.0,9.0,52,0.00,,---,0.01,VWS V14.01,2013-03-04 20:55:00,
2013-03-04 15:56:00,41.4,24.6,30.01,SSE,160,2.0,9.0,51,0.00,,---,0.01,VWS V14.01,2013-03-04 20:56:00,
2013-03-04 15:57:00,41.0,23.8,30.02,South,173,2.0,7.0,50,0.00,,---,0.01,VWS V14.01,2013-03-04 20:57:00,
2013-03-04 15:58:00,41.4,24.6,30.01,SSE,161,8.0,8.0,51,0.00,,---,0.01,VWS V14.01,2013-03-04 20:58:00,
2013-03-04 15:59:00,41.4,25.1,30.01,SSE,148,2.0,8.0,52,0.00,,---,0.01,VWS V14.01,2013-03-04 20:59:00,
2013-03-04 16:00:00,41.4,24.6,30.01,SSE,157,4.0,9.0,51,0.00,,---,0.01,VWS V14.01,2013-03-04 21:00:00,
2013-03-04 16:02:00,41.1,23.9,30.02,SE,146,0.0,6.0,50,0.00,,---,0.01,VWS V14.01,2013-03-04 21:02:00,
2013-03-04 16:03:00,41.4,24.6,30.01,South,180,4.0,8.0,51,0.00,,---,0.01,VWS V14.01,2013-03-04 21:03:00,
2013-03-04 16:05:00,41.3,24.5,30.01,South,187,4.0,5.0,51,0.00,,---,0.01,VWS V14.01,2013-03-04 21:05:00,
2013-03-04 16:06:00,41.3,25.5,30.01,South,188,1.0,5.0,53,0.00,,---,0.01,VWS V14.01,2013-03-04 21:06:00,
2013-03-04 16:07:00,41.3,25.0,30.02,SE,143,1.0,2.0,52,0.00,,---,0.01,VWS V14.01,2013-03-04 21:07:00,
2013-03-04 16:08:00,41.4,25.6,30.02,SSE,165,6.0,8.0,53,0.00,,---,0.01,VWS V14.01,2013-03-04 21:08:00,
2013-03-04 16:09:00,41.1,24.4,30.00,SSE,162,5.0,7.0,51,0.00,,---,0.01,VWS V14.01,2013-03-04 21:09:00,
2013-03-04 16:10:00,41.1,24.4,30.00,SSE,168,5.0,10.0,51,0.00,,---,0.01,VWS V14.01,2013-03-04 21:10:00,
2013-03-04 16:11:00,41.1,24.4,30.00,SSE,163,4.0,7.0,51,0.00,,---,0.01,VWS V14.01,2013-03-04 21:11:00,
2013-03-04 16:12:00,41.1,24.8,30.00,South,175,4.0,8.0,52,0.00,,---,0.01,VWS V14.01,2013-03-04 21:12:00,
2013-03-04 16:13:00,41.4,23.7,30.01,SSE,160,5.0,7.0,49,0.00,,---,0.01,VWS V14.01,2013-03-04 21:13:00,
2013-03-04 16:14:00,41.0,25.2,30.01,SSE,167,4.0,5.0,53,0.00,,---,0.01,VWS V14.01,2013-03-04 21:14:00,
2013-03-04 16:16:00,41.0,24.7,30.01,SE,140,5.0,11.0,52,0.00,,---,0.01,VWS V14.01,2013-03-04 21:16:00,
2013-03-04 16:17:00,41.0,25.2,30.01,South,170,2.0,7.0,53,0.00,,---,0.01,VWS V14.01,2013-03-04 21:17:00,
2013-03-04 16:18:00,41.5,24.3,30.01,SSE,163,4.0,10.0,50,0.00,,---,0.01,VWS V14.01,2013-03-04 21:18:00,
2013-03-04 16:20:00,41.0,26.5,30.01,SSE,163,2.0,4.0,56,0.00,,---,0.01,VWS V14.01,2013-03-04 21:20:00,
2013-03-04 16:21:00,41.0,25.2,30.01,SSE,163,2.0,2.0,53,0.00,,---,0.01,VWS V14.01,2013-03-04 21:21:00,
2013-03-04 16:23:00,41.5,24.3,30.01,SSE,165,1.0,9.0,50,0.00,,---,0.01,VWS V14.01,2013-03-04 21:23:00,
2013-03-04 16:24:00,41.0,26.1,30.01,SSE,157,2.0,2.0,55,0.00,,---,0.01,VWS V14.01,2013-03-04 21:24:00,
2013-03-04 16:25:00,41.0,26.5,30.01,SSE,165,4.0,5.0,56,0.00,,---,0.01,VWS V14.01,2013-03-04 21:25:00,
2013-03-04 16:27:00,40.9,26.0,30.01,South,169,0.0,2.0,55,0.00,,---,0.01,VWS V14.01,2013-03-04 21:27:00,
2013-03-04 16:28:00,41.3,24.5,30.01,South,177,4.0,5.0,51,0.00,,---,0.01,VWS V14.01,2013-03-04 21:28:00,
2013-03-04 16:29:00,40.9,25.5,30.01,SSE,167,2.0,6.0,54,0.00,,---,0.01,VWS V14.01,2013-03-04 21:29:00,
2013-03-04 16:31:00,40.9,25.5,30.01,SE,145,1.0,4.0,54,0.00,,---,0.01,VWS V14.01,2013-03-04 21:31:00,
2013-03-04 16:32:00,40.9,25.5,30.01,SE,145,0.0,2.0,54,0.00,,---,0.01,VWS V14.01,2013-03-04 21:32:00,
2013-03-04 16:33:00,41.3,24.1,30.01,SSE,148,1.0,7.0,50,0.00,,---,0.01,VWS V14.01,2013-03-04 21:33:00,
2013-03-04 16:34:00,40.9,26.4,30.01,SE,145,1.0,2.0,56,0.00,,---,0.01,VWS V14.01,2013-03-04 21:34:00,
2013-03-04 16:35:00,40.8,26.3,30.01,SSE,163,4.0,4.0,56,0.00,,---,0.01,VWS V14.01,2013-03-04 21:35:00,
2013-03-04 16:36:00,40.8,25.9,30.01,SSE,159,1.0,6.0,55,0.00,,---,0.01,VWS V14.01,2013-03-04 21:36:00,
2013-03-04 16:38:00,41.2,24.0,30.01,SE,144,1.0,8.0,50,0.00,,---,0.01,VWS V14.01,2013-03-04 21:38:00,
2013-03-04 16:40:00,40.8,25.5,30.01,South,186,3.0,4.0,54,0.00,,---,0.01,VWS V14.01,2013-03-04 21:40:00,
2013-03-04 16:41:00,40.7,24.9,30.01,South,178,2.0,5.0,53,0.00,,---,0.01,VWS V14.01,2013-03-04 21:41:00,
2013-03-04 16:42:00,40.7,24.9,30.01,South,178,0.0,4.0,53,0.00,,---,0.01,VWS V14.01,2013-03-04 21:42:00,
2013-03-04 16:43:00,41.2,25.4,30.01,SSE,161,1.0,4.0,53,0.00,,---,0.01,VWS V14.01,2013-03-04 21:43:00,
2013-03-04 16:45:00,40.7,25.4,30.01,South,171,4.0,5.0,54,0.00,,---,0.01,VWS V14.01,2013-03-04 21:45:00,
2013-03-04 16:46:00,40.7,24.9,30.01,SSE,154,4.0,5.0,53,0.00,,---,0.01,VWS V14.01,2013-03-04 21:46:00,
2013-03-04 16:47:00,40.6,25.3,30.01,South,169,1.0,6.0,54,0.00,,---,0.01,VWS V14.01,2013-03-04 21:47:00,
2013-03-04 16:48:00,41.2,24.5,30.01,SSE,158,5.0,5.0,51,0.00,,---,0.01,VWS V14.01,2013-03-04 21:48:00,
2013-03-04 16:49:00,40.6,25.3,30.01,SSE,157,6.0,7.0,54,0.00,,---,0.01,VWS V14.01,2013-03-04 21:49:00,
2013-03-04 16:50:00,40.6,25.3,30.01,SE,135,2.0,6.0,54,0.00,,---,0.01,VWS V14.01,2013-03-04 21:50:00,
2013-03-04 16:52:00,40.6,24.8,30.01,SSE,161,0.0,2.0,53,0.00,,---,0.01,VWS V14.01,2013-03-04 21:52:00,
2013-03-04 16:53:00,41.4,25.6,30.01,SSE,148,5.0,7.0,53,0.00,,---,0.01,VWS V14.01,2013-03-04 21:53:00,
2013-03-04 16:55:00,40.6,25.7,30.01,South,169,2.0,2.0,55,0.00,,---,0.01,VWS V14.01,2013-03-04 21:55:00,
2013-03-04 16:56:00,40.5,25.2,30.01,SSE,167,6.0,6.0,54,0.00,,---,0.01,VWS V14.01,2013-03-04 21:56:00,
2013-03-04 16:57:00,40.5,25.6,30.01,SSE,154,2.0,7.0,55,0.00,,---,0.01,VWS V14.01,2013-03-04 21:57:00,
2013-03-04 16:58:00,41.4,25.1,30.01,SSE,148,2.0,8.0,52,0.00,,---,0.01,VWS V14.01,2013-03-04 21:58:00,
2013-03-04 16:59:00,40.5,25.2,30.01,SE,145,1.0,4.0,54,0.00,,---,0.01,VWS V14.01,2013-03-04 21:59:00,
2013-03-04 17:00:00,40.5,25.6,30.02,SE,145,0.0,1.0,55,0.00,,---,0.01,VWS V14.01,2013-03-04 22:00:00,
2013-03-04 17:01:00,40.5,25.6,30.01,SE,145,0.0,0.0,55,0.00,,---,0.01,VWS V14.01,2013-03-04 22:01:00,
2013-03-04 17:02:00,40.5,26.0,30.02,SE,145,0.0,1.0,56,0.00,,---,0.01,VWS V14.01,2013-03-04 22:02:00,
2013-03-04 17:03:00,41.3,24.1,30.01,SSE,159,2.0,6.0,50,0.00,,---,0.01,VWS V14.01,2013-03-04 22:03:00,
2013-03-04 17:04:00,40.5,25.6,30.02,SE,145,0.0,0.0,55,0.00,,---,0.01,VWS V14.01,2013-03-04 22:04:00,
2013-03-04 17:05:00,40.4,26.0,30.01,SE,145,1.0,1.0,56,0.00,,---,0.01,VWS V14.01,2013-03-04 22:05:00,
2013-03-04 17:06:00,40.5,25.6,30.01,SE,146,2.0,2.0,55,0.00,,---,0.01,VWS V14.01,2013-03-04 22:06:00,
2013-03-04 17:07:00,40.4,25.5,30.01,SE,146,0.0,2.0,55,0.00,,---,0.01,VWS V14.01,2013-03-04 22:07:00,
2013-03-04 17:08:00,41.1,24.4,30.00,SSE,162,5.0,7.0,51,0.00,,---,0.01,VWS V14.01,2013-03-04 22:08:00,
2013-03-04 17:09:00,40.4,25.5,30.01,SSE,154,0.0,2.0,55,0.00,,---,0.01,VWS V14.01,2013-03-04 22:09:00,
2013-03-04 17:10:00,40.4,25.5,30.01,SSE,164,1.0,4.0,55,0.00,,---,0.01,VWS V14.01,2013-03-04 22:10:00,
2013-03-04 17:11:00,40.4,25.5,30.01,South,169,0.0,2.0,55,0.00,,---,0.01,VWS V14.01,2013-03-04 22:11:00,
2013-03-04 17:12:00,40.4,25.5,30.01,SE,142,2.0,4.0,55,0.00,,---,0.01,VWS V14.01,2013-03-04 22:12:00,
2013-03-04 17:13:00,41.0,25.2,30.01,SSE,167,4.0,5.0,53,0.00,,---,0.01,VWS V14.01,2013-03-04 22:13:00,
2013-03-04 17:14:00,40.4,25.5,30.01,SSE,157,4.0,5.0,55,0.00,,---,0.01,VWS V14.01,2013-03-04 22:14:00,
2013-03-04 17:15:00,40.5,25.6,30.01,SE,144,0.0,5.0,55,0.00,,---,0.01,VWS V14.01,2013-03-04 22:15:00,
2013-03-04 17:16:00,40.5,25.6,30.01,SE,144,0.0,1.0,55,0.00,,---,0.01,VWS V14.01,2013-03-04 22:16:00,
2013-03-04 17:17:00,40.5,25.6,30.01,SE,144,0.0,1.0,55,0.00,,---,0.01,VWS V14.01,2013-03-04 22:17:00,
2013-03-04 17:18:00,41.0,26.5,30.01,SSE,158,1.0,2.0,56,0.00,,---,0.01,VWS V14.01,2013-03-04 22:18:00,
2013-03-04 17:19:00,40.5,25.6,30.02,SE,144,0.0,0.0,55,0.00,,---,0.01,VWS V14.01,2013-03-04 22:19:00,
2013-03-04 17:20:00,40.5,26.0,30.01,SE,144,2.0,2.0,56,0.00,,---,0.01,VWS V14.01,2013-03-04 22:20:00,
2013-03-04 17:21:00,40.5,26.0,30.01,SSE,159,4.0,7.0,56,0.00,,---,0.01,VWS V14.01,2013-03-04 22:21:00,
2013-03-04 17:22:00,40.4,25.5,30.01,SSE,153,0.0,4.0,55,0.00,,---,0.01,VWS V14.01,2013-03-04 22:22:00,
2013-03-04 17:23:00,41.0,26.1,30.01,SSE,157,2.0,2.0,55,0.00,,---,0.01,VWS V14.01,2013-03-04 22:23:00,
2013-03-04 17:24:00,40.4,25.5,30.01,SE,144,1.0,6.0,55,0.00,,---,0.01,VWS V14.01,2013-03-04 22:24:00,
2013-03-04 17:25:00,40.5,25.6,30.01,SE,140,0.0,4.0,55,0.00,,---,0.01,VWS V14.01,2013-03-04 22:25:00,
2013-03-04 17:26:00,40.5,26.0,30.01,SE,134,1.0,2.0,56,0.00,,---,0.01,VWS V14.01,2013-03-04 22:26:00,
2013-03-04 17:27:00,40.5,26.0,30.01,SE,129,0.0,2.0,56,0.00,,---,0.01,VWS V14.01,2013-03-04 22:27:00,
2013-03-04 17:28:00,40.5,26.5,30.01,SE,139,1.0,4.0,57,0.00,,---,0.01,VWS V14.01,2013-03-04 22:28:00,
2013-03-04 17:29:00,40.9,25.5,30.01,SSE,167,2.0,6.0,54,0.00,,---,0.01,VWS V14.01,2013-03-04 22:29:00,
2013-03-04 17:30:00,40.4,26.4,30.01,SE,129,4.0,6.0,57,0.00,,---,0.01,VWS V14.01,2013-03-04 22:30:00,
2013-03-04 17:31:00,40.4,26.4,30.01,SSE,158,2.0,7.0,57,0.00,,---,0.01,VWS V14.01,2013-03-04 22:31:00,
2013-03-04 17:32:00,40.4,26.4,30.01,SE,141,7.0,7.0,57,0.00,,---,0.01,VWS V14.01,2013-03-04 22:32:00,
2013-03-04 17:33:00,40.4,26.4,30.01,ESE,122,6.0,8.0,57,0.00,,---,0.01,VWS V14.01,2013-03-04 22:33:00,
2013-03-04 17:34:00,40.8,26.3,30.01,SSE,163,4.0,4.0,56,0.00,,---,0.01,VWS V14.01,2013-03-04 22:34:00,
2013-03-04 17:35:00,40.3,25.9,30.01,ESE,113,4.0,7.0,56,0.00,,---,0.01,VWS V14.01,2013-03-04 22:35:00,
2013-03-04 17:36:00,40.2,25.8,30.01,South,171,6.0,7.0,56,0.00,,---,0.01,VWS V14.01,2013-03-04 22:36:00,
2013-03-04 17:37:00,40.2,25.8,30.01,SE,140,5.0,8.0,56,0.00,,---,0.01,VWS V14.01,2013-03-04 22:37:00,
2013-03-04 17:39:00,40.8,25.5,30.01,South,186,3.0,4.0,54,0.00,,---,0.01,VWS V14.01,2013-03-04 22:39:00,
2013-03-04 17:40:00,40.2,25.8,30.00,SSE,148,0.0,7.0,56,0.00,,---,0.01,VWS V14.01,2013-03-04 22:40:00,
2013-03-04 17:41:00,40.2,26.2,30.00,SE,146,1.0,5.0,57,0.00,,---,0.01,VWS V14.01,2013-03-04 22:41:00,
2013-03-04 17:42:00,40.2,26.2,30.00,SSE,161,2.0,2.0,57,0.00,,---,0.01,VWS V14.01,2013-03-04 22:42:00,
2013-03-04 17:43:00,40.2,26.6,30.00,SE,130,9.0,9.0,58,0.00,,---,0.01,VWS V14.01,2013-03-04 22:43:00,
2013-03-04 17:44:00,40.7,25.4,30.01,South,171,4.0,5.0,54,0.00,,---,0.01,VWS V14.01,2013-03-04 22:44:00,
2013-03-04 17:45:00,40.1,26.1,30.00,SE,142,2.0,7.0,57,0.00,,---,0.01,VWS V14.01,2013-03-04 22:45:00,
2013-03-04 17:46:00,40.1,26.1,30.00,SE,140,6.0,8.0,57,0.00,,---,0.01,VWS V14.01,2013-03-04 22:46:00,
2013-03-04 17:47:00,40.1,26.1,30.00,ESE,121,7.0,14.0,57,0.00,,---,0.01,VWS V14.01,2013-03-04 22:47:00,
2013-03-04 17:49:00,40.6,25.3,30.01,SE,135,2.0,6.0,54,0.00,,---,0.01,VWS V14.01,2013-03-04 22:49:00,
2013-03-04 17:50:00,40.1,25.7,30.00,SSE,154,5.0,5.0,56,0.00,,---,0.01,VWS V14.01,2013-03-04 22:50:00,
2013-03-04 17:51:00,40.1,26.1,30.00,SE,133,5.0,6.0,57,0.00,,---,0.01,VWS V14.01,2013-03-04 22:51:00,
2013-03-04 17:52:00,40.1,26.1,30.00,South,174,1.0,6.0,57,0.00,,---,0.01,VWS V14.01,2013-03-04 22:52:00,
2013-03-04 17:53:00,40.2,26.2,30.00,SSE,159,0.0,6.0,57,0.00,,---,0.01,VWS V14.01,2013-03-04 22:53:00,
2013-03-04 17:54:00,40.6,25.7,30.01,South,169,2.0,2.0,55,0.00,,---,0.01,VWS V14.01,2013-03-04 22:54:00,
2013-03-04 17:55:00,40.1,27.8,30.00,SSE,148,4.0,4.0,61,0.00,,---,0.01,VWS V14.01,2013-03-04 22:55:00,
2013-03-04 17:56:00,40.1,26.5,30.00,SSE,156,8.0,8.0,58,0.00,,---,0.01,VWS V14.01,2013-03-04 22:56:00,
2013-03-04 17:57:00,40.1,26.1,30.00,SSE,153,2.0,8.0,57,0.00,,---,0.01,VWS V14.01,2013-03-04 22:57:00,
2013-03-04 17:58:00,40.1,26.1,30.01,SSE,159,4.0,6.0,57,0.00,,---,0.01,VWS V14.01,2013-03-04 22:58:00,
2013-03-04 17:59:00,40.5,25.6,30.02,SE,145,0.0,1.0,55,0.00,,---,0.01,VWS V14.01,2013-03-04 22:59:00,
2013-03-04 18:00:00,40.1,26.1,30.01,SE,146,4.0,8.0,57,0.00,,---,0.01,VWS V14.01,2013-03-04 23:00:00,
2013-03-04 18:01:00,40.1,26.1,30.01,SSE,151,1.0,5.0,57,0.00,,---,0.01,VWS V14.01,2013-03-04 23:01:00,
2013-03-04 18:02:00,40.1,26.5,30.01,South,171,2.0,5.0,58,0.00,,---,0.01,VWS V14.01,2013-03-04 23:02:00,
2013-03-04 18:03:00,40.0,26.0,30.01,SSE,155,1.0,6.0,57,0.00,,---,0.01,VWS V14.01,2013-03-04 23:03:00,
2013-03-04 18:04:00,40.4,26.0,30.01,SE,145,1.0,1.0,56,0.00,,---,0.01,VWS V14.01,2013-03-04 23:04:00,
2013-03-04 18:05:00,40.0,26.0,30.01,SE,136,0.0,6.0,57,0.00,,---,0.01,VWS V14.01,2013-03-04 23:05:00,
2013-03-04 18:07:00,40.0,26.0,30.01,SSE,157,0.0,0.0,57,0.00,,---,0.01,VWS V14.01,2013-03-04 23:07:00,
2013-03-04 18:08:00,40.0,26.4,30.01,SSE,147,2.0,6.0,58,0.00,,---,0.01,VWS V14.01,2013-03-04 23:08:00,
2013-03-04 18:09:00,40.4,25.5,30.01,SSE,164,1.0,4.0,55,0.00,,---,0.01,VWS V14.01,2013-03-04 23:09:00,
2013-03-04 18:10:00,40.0,26.0,30.01,SSE,153,5.0,9.0,57,0.00,,---,0.01,VWS V14.01,2013-03-04 23:10:00,
2013-03-04 18:11:00,40.0,26.0,30.01,SSE,163,6.0,6.0,57,0.00,,---,0.01,VWS V14.01,2013-03-04 23:11:00,
2013-03-04 18:12:00,40.0,26.0,30.00,SE,128,6.0,8.0,57,0.00,,---,0.01,VWS V14.01,2013-03-04 23:12:00,
2013-03-04 18:13:00,40.0,26.0,30.00,SSE,167,4.0,6.0,57,0.00,,---,0.01,VWS V14.01,2013-03-04 23:13:00,
2013-03-04 18:14:00,40.5,25.6,30.01,SE,144,0.0,5.0,55,0.00,,---,0.01,VWS V14.01,2013-03-04 23:14:00,
2013-03-04 18:15:00,40.0,26.0,30.00,SSE,154,4.0,6.0,57,0.00,,---,0.01,VWS V14.01,2013-03-04 23:15:00,
2013-03-04 18:16:00,40.0,26.0,30.00,SSE,160,1.0,5.0,57,0.00,,---,0.01,VWS V14.01,2013-03-04 23:16:00,
2013-03-04 18:17:00,40.0,26.0,30.00,SE,145,4.0,6.0,57,0.00,,---,0.01,VWS V14.01,2013-03-04 23:17:00,
2013-03-04 18:18:00,40.0,26.0,30.00,SSE,150,6.0,7.0,57,0.00,,---,0.01,VWS V14.01,2013-03-04 23:18:00,
2013-03-04 18:19:00,40.5,26.0,30.01,SE,144,2.0,2.0,56,0.00,,---,0.01,VWS V14.01,2013-03-04 23:19:00,
2013-03-04 18:21:00,40.0,26.0,30.00,SE,139,2.0,9.0,57,0.00,,---,0.01,VWS V14.01,2013-03-04 23:21:00,
2013-03-04 18:22:00,40.0,26.0,30.00,SE,132,5.0,7.0,57,0.00,,---,0.01,VWS V14.01,2013-03-04 23:22:00,
2013-03-04 18:23:00,40.0,26.0,30.00,SE,144,7.0,7.0,57,0.00,,---,0.01,VWS V14.01,2013-03-04 23:23:00,
2013-03-04 18:24:00,40.5,25.6,30.01,SE,140,0.0,4.0,55,0.00,,---,0.01,VWS V14.01,2013-03-04 23:24:00,
2013-03-04 18:25:00,40.0,26.0,30.00,SE,138,8.0,8.0,57,0.00,,---,0.01,VWS V14.01,2013-03-04 23:25:00,
2013-03-04 18:26:00,40.0,26.0,30.00,SE,138,6.0,8.0,57,0.00,,---,0.01,VWS V14.01,2013-03-04 23:26:00,
2013-03-04 18:27:00,40.0,26.0,30.00,SE,139,10.0,10.0,57,0.00,,---,0.01,VWS V14.01,2013-03-04 23:27:00,
2013-03-04 18:28:00,40.0,26.0,30.00,SE,127,5.0,10.0,57,0.00,,---,0.01,VWS V14.01,2013-03-04 23:28:00,
2013-03-04 18:29:00,40.4,26.4,30.01,SE,129,4.0,6.0,57,0.00,,---,0.01,VWS V14.01,2013-03-04 23:29:00,
2013-03-04 18:30:00,40.0,26.0,29.99,SSE,150,5.0,8.0,57,0.00,,---,0.01,VWS V14.01,2013-03-04 23:30:00,
2013-03-04 18:31:00,40.0,26.0,29.99,SE,144,8.0,9.0,57,0.00,,---,0.01,VWS V14.01,2013-03-04 23:31:00,
2013-03-04 18:32:00,40.0,26.0,29.99,SE,130,12.0,12.0,57,0.00,,---,0.01,VWS V14.01,2013-03-04 23:32:00,
2013-03-04 18:33:00,40.0,26.0,29.98,SE,146,4.0,12.0,57,0.00,,---,0.01,VWS V14.01,2013-03-04 23:33:00,
2013-03-04 18:34:00,40.3,25.9,30.01,ESE,113,4.0,7.0,56,0.00,,---,0.01,VWS V14.01,2013-03-04 23:34:00,
2013-03-04 18:35:00,40.0,26.0,29.98,SE,132,7.0,11.0,57,0.00,,---,0.01,VWS V14.01,2013-03-04 23:35:00,
2013-03-04 18:36:00,39.9,25.9,29.98,SE,128,2.0,7.0,57,0.00,,---,0.01,VWS V14.01,2013-03-04 23:36:00,
2013-03-04 18:37:00,39.9,25.9,29.98,SE,124,7.0,9.0,57,0.00,,---,0.01,VWS V14.01,2013-03-04 23:37:00,
2013-03-04 18:38:00,39.9,26.3,29.98,SE,130,6.0,8.0,58,0.00,,---,0.01,VWS V14.01,2013-03-04 23:38:00,
2013-03-04 18:39:00,40.2,25.8,30.00,SSE,148,0.0,7.0,56,0.00,,---,0.01,VWS V14.01,2013-03-04 23:39:00,
2013-03-04 18:40:00,39.9,26.3,29.98,ESE,114,2.0,9.0,58,0.00,,---,0.01,VWS V14.01,2013-03-04 23:40:00,
2013-03-04 18:41:00,39.9,26.3,29.98,ESE,117,2.0,8.0,58,0.00,,---,0.01,VWS V14.01,2013-03-04 23:41:00,
2013-03-04 18:42:00,39.8,26.7,29.98,SE,136,7.0,7.0,59,0.00,,---,0.01,VWS V14.01,2013-03-04 23:42:00,
2013-03-04 18:43:00,39.8,26.7,29.98,SE,127,8.0,9.0,59,0.00,,---,0.01,VWS V14.01,2013-03-04 23:43:00,
2013-03-04 18:44:00,40.1,26.1,30.00,SE,142,2.0,7.0,57,0.00,,---,0.01,VWS V14.01,2013-03-04 23:44:00,
2013-03-04 18:45:00,39.7,26.6,29.98,SSE,148,6.0,11.0,59,0.00,,---,0.01,VWS V14.01,2013-03-04 23:45:00,
2013-03-04 18:46:00,39.7,26.6,29.98,ESE,110,2.0,8.0,59,0.00,,---,0.01,VWS V14.01,2013-03-04 23:46:00,
2013-03-04 18:47:00,39.7,26.6,29.98,ESE,109,5.0,5.0,59,0.00,,---,0.01,VWS V14.01,2013-03-04 23:47:00,
2013-03-04 18:48:00,39.7,26.6,29.98,ESE,121,5.0,7.0,59,0.00,,---,0.01,VWS V14.01,2013-03-04 23:48:00,
2013-03-04 18:49:00,40.1,25.7,30.00,SSE,154,5.0,5.0,56,0.00,,---,0.01,VWS V14.01,2013-03-04 23:49:00,
2013-03-04 18:50:00,39.6,26.5,29.98,SE,134,2.0,6.0,59,0.00,,---,0.01,VWS V14.01,2013-03-04 23:50:00,
2013-03-04 18:51:00,39.6,26.9,29.98,SE,128,2.0,6.0,60,0.00,,---,0.01,VWS V14.01,2013-03-04 23:51:00,
2013-03-04 18:52:00,39.6,26.9,29.98,South,170,7.0,8.0,60,0.00,,---,0.01,VWS V14.01,2013-03-04 23:52:00,
2013-03-04 18:53:00,39.6,26.9,29.98,East,98,6.0,8.0,60,0.00,,---,0.01,VWS V14.01,2013-03-04 23:53:00,
2013-03-04 18:54:00,40.1,27.8,30.00,SSE,148,4.0,4.0,61,0.00,,---,0.01,VWS V14.01,2013-03-04 23:54:00,
2013-03-04 18:55:00,39.5,26.8,29.98,SE,146,8.0,13.0,60,0.00,,---,0.01,VWS V14.01,2013-03-04 23:55:00,
2013-03-04 18:56:00,39.5,26.8,29.98,SE,134,4.0,8.0,60,0.00,,---,0.01,VWS V14.01,2013-03-04 23:56:00,
2013-03-04 18:57:00,39.5,26.8,29.98,SSE,158,4.0,5.0,60,0.00,,---,0.01,VWS V14.01,2013-03-04 23:57:00,
2013-03-04 18:58:00,39.5,26.8,29.98,ESE,123,6.0,13.0,60,0.00,,---,0.01,VWS V14.01,2013-03-04 23:58:00,
2013-03-04 18:59:00,40.1,26.1,30.01,SE,146,4.0,8.0,57,0.00,,---,0.01,VWS V14.01,2013-03-04 23:59:00,
2013-03-04 19:00:00,39.4,26.7,29.98,SE,124,7.0,9.0,60,0.00,,---,0.01,VWS V14.01,2013-03-05 00:00:00,
2013-03-04 19:01:00,39.5,26.8,29.98,SE,128,4.0,9.0,60,0.00,,---,0.01,VWS V14.01,2013-03-05 00:01:00,
2013-03-04 19:02:00,39.4,26.7,29.98,SE,133,4.0,6.0,60,0.00,,---,0.01,VWS V14.01,2013-03-05 00:02:00,
2013-03-04 19:03:00,39.4,26.7,29.98,SSW,199,1.0,5.0,60,0.00,,---,0.01,VWS V14.01,2013-03-05 00:03:00,
2013-03-04 19:04:00,40.0,26.0,30.01,SE,136,0.0,6.0,57,0.00,,---,0.01,VWS V14.01,2013-03-05 00:04:00,
2013-03-04 19:05:00,39.4,26.7,29.98,SE,134,6.0,7.0,60,0.00,,---,0.01,VWS V14.01,2013-03-05 00:05:00,
2013-03-04 19:06:00,39.3,26.6,29.98,SE,128,4.0,10.0,60,0.00,,---,0.01,VWS V14.01,2013-03-05 00:06:00,
2013-03-04 19:07:00,39.4,26.7,29.98,SE,127,7.0,12.0,60,0.00,,---,0.01,VWS V14.01,2013-03-05 00:07:00,
2013-03-04 19:08:00,39.3,26.6,29.98,SSE,151,2.0,8.0,60,0.00,,---,0.01,VWS V14.01,2013-03-05 00:08:00,
2013-03-04 19:09:00,40.0,26.0,30.01,SSE,153,5.0,9.0,57,0.00,,---,0.01,VWS V14.01,2013-03-05 00:09:00,
2013-03-04 19:10:00,39.4,26.7,29.98,SSE,147,1.0,2.0,60,0.00,,---,0.01,VWS V14.01,2013-03-05 00:10:00,
2013-03-04 19:11:00,39.3,26.6,29.98,SE,142,2.0,4.0,60,0.00,,---,0.01,VWS V14.01,2013-03-05 00:11:00,
2013-03-04 19:12:00,39.3,26.6,29.98,SE,142,1.0,2.0,60,0.00,,---,0.01,VWS V14.01,2013-03-05 00:12:00,
2013-03-04 19:13:00,39.3,26.6,29.98,SSE,155,2.0,9.0,60,0.00,,---,0.01,VWS V14.01,2013-03-05 00:13:00,
2013-03-04 19:14:00,40.0,26.0,30.00,SSE,154,4.0,6.0,57,0.00,,---,0.01,VWS V14.01,2013-03-05 00:14:00,
2013-03-04 19:15:00,39.3,26.6,29.99,SSE,156,0.0,4.0,60,0.00,,---,0.01,VWS V14.01,2013-03-05 00:15:00,
2013-03-04 19:16:00,39.3,26.6,29.99,SSE,154,1.0,4.0,60,0.00,,---,0.01,VWS V14.01,2013-03-05 00:16:00,
2013-03-04 19:18:00,39.2,26.5,29.99,South,171,4.0,9.0,60,0.00,,---,0.01,VWS V14.01,2013-03-05 00:18:00,
2013-03-04 19:19:00,40.0,26.0,30.00,SSE,155,7.0,9.0,57,0.00,,---,0.01,VWS V14.01,2013-03-05 00:19:00,
2013-03-04 19:20:00,39.2,26.1,29.99,SSE,151,7.0,7.0,59,0.00,,---,0.01,VWS V14.01,2013-03-05 00:20:00,
2013-03-04 19:21:00,39.2,26.1,29.99,SE,136,0.0,7.0,59,0.00,,---,0.01,VWS V14.01,2013-03-05 00:21:00,
2013-03-04 19:22:00,39.2,26.1,29.99,SE,133,0.0,4.0,59,0.00,,---,0.01,VWS V14.01,2013-03-05 00:22:00,
2013-03-04 19:23:00,39.3,26.6,29.99,SSE,157,2.0,6.0,60,0.00,,---,0.01,VWS V14.01,2013-03-05 00:23:00,
2013-03-04 19:24:00,40.0,26.0,30.00,SE,138,8.0,8.0,57,0.00,,---,0.01,VWS V14.01,2013-03-05 00:24:00,
2013-03-04 19:25:00,39.2,26.1,29.99,SSE,163,0.0,6.0,59,0.00,,---,0.01,VWS V14.01,2013-03-05 00:25:00,
2013-03-04 19:26:00,39.3,26.2,29.99,SSE,167,5.0,5.0,59,0.00,,---,0.01,VWS V14.01,2013-03-05 00:26:00,
2013-03-04 19:27:00,39.2,26.1,29.99,SE,142,2.0,6.0,59,0.00,,---,0.01,VWS V14.01,2013-03-05 00:27:00,
2013-03-04 19:28:00,39.3,26.2,29.99,SSE,162,4.0,6.0,59,0.00,,---,0.01,VWS V14.01,2013-03-05 00:28:00,
2013-03-04 19:29:00,40.0,26.0,29.99,SSE,150,5.0,8.0,57,0.00,,---,0.01,VWS V14.01,2013-03-05 00:29:00,
2013-03-04 19:30:00,39.3,26.2,29.99,ESE,120,0.0,5.0,59,0.00,,---,0.01,VWS V14.01,2013-03-05 00:30:00,
2013-03-04 19:31:00,39.3,26.2,29.99,ESE,121,2.0,4.0,59,0.00,,---,0.01,VWS V14.01,2013-03-05 00:31:00,
2013-03-04 19:32:00,39.3,26.2,29.99,ESE,121,1.0,4.0,59,0.00,,---,0.01,VWS V14.01,2013-03-05 00:32:00,
2013-03-04 19:33:00,39.3,26.2,29.99,SE,126,5.0,6.0,59,0.00,,---,0.01,VWS V14.01,2013-03-05 00:33:00,
2013-03-04 19:34:00,40.0,26.0,29.98,SE,132,7.0,11.0,57,0.00,,---,0.01,VWS V14.01,2013-03-05 00:34:00,
2013-03-04 19:35:00,39.3,26.2,29.99,SE,144,2.0,4.0,59,0.00,,---,0.01,VWS V14.01,2013-03-05 00:35:00,
2013-03-04 19:36:00,39.2,26.1,29.99,SE,144,0.0,2.0,59,0.00,,---,0.01,VWS V14.01,2013-03-05 00:36:00,
2013-03-04 19:37:00,39.2,26.1,29.99,SSE,167,1.0,4.0,59,0.00,,---,0.01,VWS V14.01,2013-03-05 00:37:00,
2013-03-04 19:38:00,39.2,26.1,29.99,SSE,150,4.0,5.0,59,0.00,,---,0.01,VWS V14.01,2013-03-05 00:38:00,
2013-03-04 19:39:00,39.9,26.3,29.98,ESE,114,2.0,9.0,58,0.00,,---,0.01,VWS V14.01,2013-03-05 00:39:00,
2013-03-04 19:40:00,39.2,26.1,29.99,SSE,161,1.0,8.0,59,0.00,,---,0.01,VWS V14.01,2013-03-05 00:40:00,
2013-03-04 19:41:00,39.2,25.7,30.00,SE,146,5.0,6.0,58,0.00,,---,0.01,VWS V14.01,2013-03-05 00:41:00,
2013-03-04 19:42:00,39.3,25.8,30.00,SSE,160,2.0,5.0,58,0.00,,---,0.01,VWS V14.01,2013-03-05 00:42:00,
2013-03-04 19:43:00,39.3,26.2,30.00,SSE,164,0.0,2.0,59,0.00,,---,0.01,VWS V14.01,2013-03-05 00:43:00,
2013-03-04 19:44:00,39.7,26.6,29.98,SSE,148,6.0,11.0,59,0.00,,---,0.01,VWS V14.01,2013-03-05 00:44:00,
2013-03-04 19:45:00,39.3,26.2,30.00,SE,137,2.0,4.0,59,0.00,,---,0.01,VWS V14.01,2013-03-05 00:45:00,
2013-03-04 19:46:00,39.3,26.2,30.00,SE,144,4.0,4.0,59,0.00,,---,0.01,VWS V14.01,2013-03-05 00:46:00,
2013-03-04 19:47:00,39.3,26.2,30.00,SE,142,1.0,4.0,59,0.00,,---,0.01,VWS V14.01,2013-03-05 00:47:00,
2013-03-04 19:48:00,39.3,26.2,30.00,SE,144,1.0,5.0,59,0.00,,---,0.01,VWS V14.01,2013-03-05 00:48:00,
2013-03-04 19:49:00,39.6,26.5,29.98,SE,134,2.0,6.0,59,0.00,,---,0.01,VWS V14.01,2013-03-05 00:49:00,
2013-03-04 19:50:00,39.3,26.2,30.00,SSE,153,8.0,8.0,59,0.00,,---,0.01,VWS V14.01,2013-03-05 00:50:00,
2013-03-04 19:51:00,39.3,25.8,30.00,SE,135,4.0,9.0,58,0.00,,---,0.01,VWS V14.01,2013-03-05 00:51:00,
2013-03-04 19:52:00,39.3,25.8,30.00,SE,136,2.0,8.0,58,0.00,,---,0.01,VWS V14.01,2013-03-05 00:52:00,
2013-03-04 19:53:00,39.3,25.8,30.00,SSE,151,4.0,5.0,58,0.00,,---,0.01,VWS V14.01,2013-03-05 00:53:00,
2013-03-04 19:54:00,39.5,26.8,29.98,SE,146,8.0,13.0,60,0.00,,---,0.01,VWS V14.01,2013-03-05 00:54:00,
2013-03-04 19:55:00,39.3,25.8,30.00,SSE,162,0.0,5.0,58,0.00,,---,0.01,VWS V14.01,2013-03-05 00:55:00,
2013-03-04 19:56:00,39.3,25.8,30.00,SE,140,1.0,4.0,58,0.00,,---,0.01,VWS V14.01,2013-03-05 00:56:00,
2013-03-04 19:57:00,39.3,25.8,30.00,SE,126,5.0,5.0,58,0.00,,---,0.01,VWS V14.01,2013-03-05 00:57:00,
2013-03-04 19:58:00,39.3,25.8,30.00,SE,132,4.0,5.0,58,0.00,,---,0.01,VWS V14.01,2013-03-05 00:58:00,
2013-03-04 19:59:00,39.4,26.7,29.98,SE,124,7.0,9.0,60,0.00,,---,0.01,VWS V14.01,2013-03-05 00:59:00,
2013-03-04 20:00:00,39.3,25.8,30.00,ESE,120,4.0,4.0,58,0.00,,---,0.01,VWS V14.01,2013-03-05 01:00:00,
2013-03-04 20:01:00,39.3,25.8,30.00,ESE,121,1.0,4.0,58,0.00,,---,0.01,VWS V14.01,2013-03-05 01:01:00,
2013-03-04 20:02:00,39.3,25.8,30.00,SE,143,2.0,2.0,58,0.00,,---,0.01,VWS V14.01,2013-03-05 01:02:00,
2013-03-04 20:03:00,39.3,25.8,30.00,SSE,147,5.0,6.0,58,0.00,,---,0.01,VWS V14.01,2013-03-05 01:03:00,
2013-03-04 20:04:00,39.4,26.7,29.98,SE,134,6.0,7.0,60,0.00,,---,0.01,VWS V14.01,2013-03-05 01:04:00,
2013-03-04 20:05:00,39.2,25.7,30.00,SE,142,4.0,6.0,58,0.00,,---,0.01,VWS V14.01,2013-03-05 01:05:00,
2013-03-04 20:06:00,39.2,25.7,30.00,ESE,118,0.0,5.0,58,0.00,,---,0.01,VWS V14.01,2013-03-05 01:06:00,
2013-03-04 20:07:00,39.2,25.7,30.00,ESE,123,0.0,1.0,58,0.00,,---,0.01,VWS V14.01,2013-03-05 01:07:00,
2013-03-04 20:08:00,39.2,25.7,30.00,ESE,113,1.0,5.0,58,0.00,,---,0.01,VWS V14.01,2013-03-05 01:08:00,
2013-03-04 20:09:00,39.4,26.7,29.98,SSE,147,1.0,2.0,60,0.00,,---,0.01,VWS V14.01,2013-03-05 01:09:00,
2013-03-04 20:10:00,39.2,25.7,30.00,SE,132,1.0,5.0,58,0.00,,---,0.01,VWS V14.01,2013-03-05 01:10:00,
2013-03-04 20:11:00,39.2,25.7,30.00,SSE,147,2.0,6.0,58,0.00,,---,0.01,VWS V14.01,2013-03-05 01:11:00,
2013-03-04 20:12:00,39.2,25.7,30.00,SE,138,0.0,4.0,58,0.00,,---,0.01,VWS V14.01,2013-03-05 01:12:00,
2013-03-04 20:13:00,39.2,25.7,30.00,SE,130,0.0,1.0,58,0.00,,---,0.01,VWS V14.01,2013-03-05 01:13:00,
2013-03-04 20:14:00,39.3,26.6,29.99,SSE,156,0.0,4.0,60,0.00,,---,0.01,VWS V14.01,2013-03-05 01:14:00,
2013-03-04 20:15:00,39.2,25.7,30.00,SE,146,1.0,4.0,58,0.00,,---,0.01,VWS V14.01,2013-03-05 01:15:00,
2013-03-04 20:16:00,39.2,25.7,30.00,SSE,152,2.0,2.0,58,0.00,,---,0.01,VWS V14.01,2013-03-05 01:16:00,
2013-03-04 20:17:00,39.2,26.1,30.00,SSE,152,0.0,2.0,59,0.00,,---,0.01,VWS V14.01,2013-03-05 01:17:00,
2013-03-04 20:18:00,39.2,26.1,30.00,SSE,152,0.0,1.0,59,0.00,,---,0.01,VWS V14.01,2013-03-05 01:18:00,
2013-03-04 20:19:00,39.2,26.1,29.99,SSE,151,7.0,7.0,59,0.00,,---,0.01,VWS V14.01,2013-03-05 01:19:00,
2013-03-04 20:20:00,39.1,26.0,30.00,SSE,150,0.0,1.0,59,0.00,,---,0.01,VWS V14.01,2013-03-05 01:20:00,
2013-03-04 20:21:00,39.2,26.1,30.00,SE,140,4.0,4.0,59,0.00,,---,0.01,VWS V14.01,2013-03-05 01:21:00,
2013-03-04 20:22:00,39.1,25.6,30.00,SE,135,1.0,4.0,58,0.00,,---,0.01,VWS V14.01,2013-03-05 01:22:00,
2013-03-04 20:23:00,39.1,26.0,30.00,ESE,120,0.0,4.0,59,0.00,,---,0.01,VWS V14.01,2013-03-05 01:23:00,
2013-03-04 20:24:00,39.2,26.1,29.99,SSE,163,0.0,6.0,59,0.00,,---,0.01,VWS V14.01,2013-03-05 01:24:00,
2013-03-04 20:25:00,39.1,26.0,30.00,ESE,112,4.0,6.0,59,0.00,,---,0.01,VWS V14.01,2013-03-05 01:25:00,
2013-03-04 20:26:00,39.1,25.6,30.00,ESE,123,0.0,4.0,58,0.00,,---,0.01,VWS V14.01,2013-03-05 01:26:00,
2013-03-04 20:27:00,39.1,26.0,30.00,ESE,123,0.0,0.0,59,0.00,,---,0.01,VWS V14.01,2013-03-05 01:27:00,
2013-03-04 20:28:00,39.1,26.0,30.01,ESE,123,0.0,0.0,59,0.00,,---,0.01,VWS V14.01,2013-03-05 01:28:00,
2013-03-04 20:29:00,39.3,26.2,29.99,ESE,120,0.0,5.0,59,0.00,,---,0.01,VWS V14.01,2013-03-05 01:29:00,
2013-03-04 20:30:00,39.1,25.6,30.00,SSE,155,4.0,5.0,58,0.00,,---,0.01,VWS V14.01,2013-03-05 01:30:00,
2013-03-04 20:31:00,39.1,25.6,30.00,SE,144,4.0,6.0,58,0.00,,---,0.01,VWS V14.01,2013-03-05 01:31:00,
2013-03-04 20:32:00,39.1,25.6,30.00,SE,140,2.0,7.0,58,0.00,,---,0.01,VWS V14.01,2013-03-05 01:32:00,
2013-03-04 20:33:00,39.1,25.6,30.00,SSE,157,2.0,4.0,58,0.00,,---,0.01,VWS V14.01,2013-03-05 01:33:00,
2013-03-04 20:34:00,39.3,26.2,29.99,SE,144,2.0,4.0,59,0.00,,---,0.01,VWS V14.01,2013-03-05 01:34:00,
2013-03-04 20:35:00,39.1,25.6,30.00,SE,135,6.0,6.0,58,0.00,,---,0.01,VWS V14.01,2013-03-05 01:35:00,
2013-03-04 20:36:00,39.2,25.7,30.00,SE,137,0.0,6.0,58,0.00,,---,0.01,VWS V14.01,2013-03-05 01:36:00,
2013-03-04 20:37:00,39.1,25.6,30.01,SE,137,0.0,4.0,58,0.00,,---,0.01,VWS V14.01,2013-03-05 01:37:00,
2013-03-04 20:38:00,39.1,25.6,30.01,SSE,150,0.0,2.0,58,0.00,,---,0.01,VWS V14.01,2013-03-05 01:38:00,
2013-03-04 20:39:00,39.2,26.1,29.99,SSE,161,1.0,8.0,59,0.00,,---,0.01,VWS V14.01,2013-03-05 01:39:00,
2013-03-04 20:40:00,39.2,25.7,30.01,SE,140,1.0,5.0,58,0.00,,---,0.01,VWS V14.01,2013-03-05 01:40:00,
2013-03-04 20:42:00,39.1,25.6,30.01,SSE,159,4.0,5.0,58,0.00,,---,0.01,VWS V14.01,2013-03-05 01:42:00,
2013-03-04 20:43:00,39.1,25.6,30.00,SE,132,2.0,5.0,58,0.00,,---,0.01,VWS V14.01,2013-03-05 01:43:00,
2013-03-04 20:44:00,39.3,26.2,30.00,SE,137,2.0,4.0,59,0.00,,---,0.01,VWS V14.01,2013-03-05 01:44:00,
2013-03-04 20:46:00,39.2,25.7,30.00,ESE,112,4.0,6.0,58,0.00,,---,0.01,VWS V14.01,2013-03-05 01:46:00,
2013-03-04 20:47:00,39.2,25.7,30.00,ESE,113,0.0,4.0,58,0.00,,---,0.01,VWS V14.01,2013-03-05 01:47:00,
2013-03-04 20:48:00,39.2,25.7,30.01,SE,132,0.0,5.0,58,0.00,,---,0.01,VWS V14.01,2013-03-05 01:48:00,
2013-03-04 20:49:00,39.3,26.2,30.00,SSE,153,8.0,8.0,59,0.00,,---,0.01,VWS V14.01,2013-03-05 01:49:00,
2013-03-04 20:50:00,39.2,25.7,30.01,SE,138,4.0,5.0,58,0.00,,---,0.01,VWS V14.01,2013-03-05 01:50:00,
2013-03-04 20:51:00,39.2,25.7,30.01,SE,132,5.0,7.0,58,0.00,,---,0.01,VWS V14.01,2013-03-05 01:51:00,
2013-03-04 20:52:00,39.2,25.7,30.00,SSE,150,1.0,6.0,58,0.00,,---,0.01,VWS V14.01,2013-03-05 01:52:00,
2013-03-04 20:53:00,39.2,25.7,30.01,SE,127,0.0,5.0,58,0.00,,---,0.01,VWS V14.01,2013-03-05 01:53:00,
2013-03-04 20:54:00,39.3,25.8,30.00,SSE,162,0.0,5.0,58,0.00,,---,0.01,VWS V14.01,2013-03-05 01:54:00,
2013-03-04 20:55:00,39.2,25.7,30.01,ESE,112,0.0,5.0,58,0.00,,---,0.01,VWS V14.01,2013-03-05 01:55:00,
2013-03-04 20:56:00,39.2,25.7,30.01,SE,124,0.0,4.0,58,0.00,,---,0.01,VWS V14.01,2013-03-05 01:56:00,
2013-03-04 20:57:00,39.2,25.7,30.01,SE,124,2.0,2.0,58,0.00,,---,0.01,VWS V14.01,2013-03-05 01:57:00,
2013-03-04 20:58:00,39.2,25.7,30.00,SE,125,0.0,2.0,58,0.00,,---,0.01,VWS V14.01,2013-03-05 01:58:00,
2013-03-04 20:59:00,39.3,25.8,30.00,ESE,120,4.0,4.0,58,0.00,,---,0.01,VWS V14.01,2013-03-05 01:59:00,
2013-03-04 21:00:00,39.1,25.6,30.00,SE,127,2.0,5.0,58,0.00,,---,0.01,VWS V14.01,2013-03-05 02:00:00,
2013-03-04 21:01:00,39.2,25.7,30.01,SE,139,6.0,6.0,58,0.00,,---,0.01,VWS V14.01,2013-03-05 02:01:00,
2013-03-04 21:02:00,39.2,25.7,30.01,SSE,150,1.0,6.0,58,0.00,,---,0.01,VWS V14.01,2013-03-05 02:02:00,
2013-03-04 21:03:00,39.2,25.7,30.01,SSE,150,0.0,2.0,58,0.00,,---,0.01,VWS V14.01,2013-03-05 02:03:00,
2013-03-04 21:04:00,39.2,25.7,30.00,SE,142,4.0,6.0,58,0.00,,---,0.01,VWS V14.01,2013-03-05 02:04:00,
2013-03-04 21:05:00,39.2,25.7,30.01,SE,138,0.0,5.0,58,0.00,,---,0.01,VWS V14.01,2013-03-05 02:05:00,
2013-03-04 21:06:00,39.2,25.7,30.01,SE,134,2.0,2.0,58,0.00,,---,0.01,VWS V14.01,2013-03-05 02:06:00,
2013-03-04 21:07:00,39.2,25.7,30.01,SSE,150,0.0,5.0,58,0.00,,---,0.01,VWS V14.01,2013-03-05 02:07:00,
2013-03-04 21:08:00,39.2,25.7,30.01,SE,131,5.0,5.0,58,0.00,,---,0.01,VWS V14.01,2013-03-05 02:08:00,
2013-03-04 21:09:00,39.2,25.7,30.00,SE,132,1.0,5.0,58,0.00,,---,0.01,VWS V14.01,2013-03-05 02:09:00,
2013-03-04 21:10:00,39.2,25.7,30.01,SE,134,4.0,4.0,58,0.00,,---,0.01,VWS V14.01,2013-03-05 02:10:00,
2013-03-04 21:11:00,39.2,25.7,30.01,SE,139,4.0,4.0,58,0.00,,---,0.01,VWS V14.01,2013-03-05 02:11:00,
2013-03-04 21:12:00,39.1,25.6,30.01,SE,126,4.0,4.0,58,0.00,,---,0.01,VWS V14.01,2013-03-05 02:12:00,
2013-03-04 21:13:00,39.1,25.6,30.00,SE,126,4.0,5.0,58,0.00,,---,0.01,VWS V14.01,2013-03-05 02:13:00,
2013-03-04 21:14:00,39.2,25.7,30.00,SE,146,1.0,4.0,58,0.00,,---,0.01,VWS V14.01,2013-03-05 02:14:00,
2013-03-04 21:15:00,39.1,25.6,30.00,SSE,148,2.0,5.0,58,0.00,,---,0.01,VWS V14.01,2013-03-05 02:15:00,
2013-03-04 21:16:00,39.1,25.6,30.00,SE,130,1.0,2.0,58,0.00,,---,0.01,VWS V14.01,2013-03-05 02:16:00,
2013-03-04 21:17:00,39.1,25.6,30.01,SE,146,4.0,5.0,58,0.00,,---,0.01,VWS V14.01,2013-03-05 02:17:00,
2013-03-04 21:18:00,39.1,25.6,30.01,SE,127,1.0,7.0,58,0.00,,---,0.01,VWS V14.01,2013-03-05 02:18:00,
2013-03-04 21:19:00,39.1,26.0,30.00,SSE,150,0.0,1.0,59,0.00,,---,0.01,VWS V14.01,2013-03-05 02:19:00,
2013-03-04 21:20:00,39.1,25.6,30.00,ESE,120,2.0,5.0,58,0.00,,---,0.01,VWS V14.01,2013-03-05 02:20:00,
2013-03-04 21:21:00,39.1,25.6,30.01,SE,132,4.0,4.0,58,0.00,,---,0.01,VWS V14.01,2013-03-05 02:21:00,
2013-03-04 21:22:00,39.1,25.6,30.00,SE,132,0.0,4.0,58,0.00,,---,0.01,VWS V14.01,2013-03-05 02:22:00,
2013-03-04 21:23:00,39.1,25.6,30.00,SE,135,0.0,5.0,58,0.00,,---,0.01,VWS V14.01,2013-03-05 02:23:00,
2013-03-04 21:24:00,39.1,26.0,30.00,ESE,112,4.0,6.0,59,0.00,,---,0.01,VWS V14.01,2013-03-05 02:24:00,
2013-03-04 21:25:00,39.0,25.5,30.01,SE,134,1.0,1.0,58,0.00,,---,0.01,VWS V14.01,2013-03-05 02:25:00,
2013-03-04 21:26:00,39.0,25.5,30.00,SE,130,0.0,2.0,58,0.00,,---,0.01,VWS V14.01,2013-03-05 02:26:00,
2013-03-04 21:27:00,39.0,25.5,30.00,SE,140,0.0,2.0,58,0.00,,---,0.01,VWS V14.01,2013-03-05 02:27:00,
2013-03-04 21:28:00,39.0,25.9,30.01,SE,136,1.0,5.0,59,0.00,,---,0.01,VWS V14.01,2013-03-05 02:28:00,
2013-03-04 21:29:00,39.1,25.6,30.00,SSE,155,4.0,5.0,58,0.00,,---,0.01,VWS V14.01,2013-03-05 02:29:00,
2013-03-04 21:30:00,39.0,25.5,30.00,SSE,153,0.0,4.0,58,0.00,,---,0.01,VWS V14.01,2013-03-05 02:30:00,
2013-03-04 21:31:00,39.0,25.5,30.01,SSE,153,0.0,0.0,58,0.00,,---,0.01,VWS V14.01,2013-03-05 02:31:00,
2013-03-04 21:32:00,39.0,25.9,30.00,SE,130,4.0,4.0,59,0.00,,---,0.01,VWS V14.01,2013-03-05 02:32:00,
2013-03-04 21:33:00,38.9,25.8,30.00,SE,133,0.0,5.0,59,0.00,,---,0.01,VWS V14.01,2013-03-05 02:33:00,
2013-03-04 21:34:00,39.1,25.6,30.00,SE,135,6.0,6.0,58,0.00,,---,0.01,VWS V14.01,2013-03-05 02:34:00,
2013-03-04 21:35:00,38.9,25.4,30.00,SE,126,7.0,7.0,58,0.00,,---,0.01,VWS V14.01,2013-03-05 02:35:00,
2013-03-04 21:36:00,38.9,25.4,30.00,SE,138,0.0,7.0,58,0.00,,---,0.01,VWS V14.01,2013-03-05 02:36:00,
2013-03-04 21:38:00,38.9,25.8,30.00,SE,138,0.0,1.0,59,0.00,,---,0.01,VWS V14.01,2013-03-05 02:38:00,
2013-03-04 21:39:00,39.2,25.7,30.01,SE,140,1.0,5.0,58,0.00,,---,0.01,VWS V14.01,2013-03-05 02:39:00,
2013-03-04 21:40:00,38.9,25.8,30.00,SE,134,5.0,5.0,59,0.00,,---,0.01,VWS V14.01,2013-03-05 02:40:00,
2013-03-04 21:41:00,38.9,25.8,30.00,SE,129,0.0,5.0,59,0.00,,---,0.01,VWS V14.01,2013-03-05 02:41:00,
2013-03-04 21:42:00,38.9,25.8,30.00,SE,127,0.0,1.0,59,0.00,,---,0.01,VWS V14.01,2013-03-05 02:42:00,
2013-03-04 21:43:00,38.9,25.8,30.00,SE,127,0.0,4.0,59,0.00,,---,0.01,VWS V14.01,2013-03-05 02:43:00,
2013-03-04 21:44:00,39.1,25.6,30.00,SE,140,2.0,4.0,58,0.00,,---,0.01,VWS V14.01,2013-03-05 02:44:00,
2013-03-04 21:45:00,38.9,25.8,30.00,East,101,0.0,4.0,59,0.00,,---,0.01,VWS V14.01,2013-03-05 02:45:00,
2013-03-04 21:46:00,38.9,25.8,30.00,East,101,0.0,1.0,59,0.00,,---,0.01,VWS V14.01,2013-03-05 02:46:00,
2013-03-04 21:47:00,38.9,25.8,30.00,East,101,0.0,1.0,59,0.00,,---,0.01,VWS V14.01,2013-03-05 02:47:00,
2013-03-04 21:48:00,38.8,25.7,30.00,East,101,1.0,1.0,59,0.00,,---,0.01,VWS V14.01,2013-03-05 02:48:00,
2013-03-04 21:49:00,38.8,25.7,30.00,ENE,72,2.0,5.0,59,0.00,,---,0.01,VWS V14.01,2013-03-05 02:49:00,
2013-03-04 21:50:00,39.2,25.7,30.01,SE,132,5.0,7.0,58,0.00,,---,0.01,VWS V14.01,2013-03-05 02:50:00,
2013-03-04 21:51:00,38.8,25.7,30.00,ENE,72,0.0,1.0,59,0.00,,---,0.01,VWS V14.01,2013-03-05 02:51:00,
2013-03-04 21:52:00,38.8,25.7,30.00,SE,133,0.0,2.0,59,0.00,,---,0.01,VWS V14.01,2013-03-05 02:52:00,
2013-03-04 21:53:00,38.8,25.7,30.00,SE,128,2.0,2.0,59,0.00,,---,0.01,VWS V14.01,2013-03-05 02:53:00,
2013-03-04 21:54:00,38.8,25.7,30.00,SE,128,0.0,2.0,59,0.00,,---,0.01,VWS V14.01,2013-03-05 02:54:00,
2013-03-04 21:55:00,39.2,25.7,30.01,SE,124,0.0,4.0,58,0.00,,---,0.01,VWS V14.01,2013-03-05 02:55:00,
2013-03-04 21:56:00,38.8,25.7,30.00,SE,136,0.0,1.0,59,0.00,,---,0.01,VWS V14.01,2013-03-05 02:56:00,
2013-03-04 21:57:00,38.8,26.1,30.00,SE,136,0.0,0.0,60,0.00,,---,0.01,VWS V14.01,2013-03-05 02:57:00,
2013-03-04 21:58:00,38.8,25.7,30.00,SE,133,2.0,5.0,59,0.00,,---,0.01,VWS V14.01,2013-03-05 02:58:00,
2013-03-04 21:59:00,38.8,25.7,30.00,SE,130,0.0,4.0,59,0.00,,---,0.01,VWS V14.01,2013-03-05 02:59:00,
2013-03-04 22:00:00,39.2,25.7,30.01,SE,139,6.0,6.0,58,0.00,,---,0.01,VWS V14.01,2013-03-05 03:00:00,
2013-03-04 22:01:00,38.8,26.1,30.00,SE,124,0.0,2.0,60,0.00,,---,0.01,VWS V14.01,2013-03-05 03:01:00,
2013-03-04 22:02:00,38.8,25.7,30.00,SE,130,2.0,2.0,59,0.00,,---,0.01,VWS V14.01,2013-03-05 03:02:00,
2013-03-04 22:03:00,38.8,25.7,30.00,SSE,149,0.0,2.0,59,0.00,,---,0.01,VWS V14.01,2013-03-05 03:03:00,
2013-03-04 22:04:00,38.8,25.7,30.00,SE,126,2.0,5.0,59,0.00,,---,0.01,VWS V14.01,2013-03-05 03:04:00,
2013-03-04 22:05:00,39.2,25.7,30.01,SE,134,2.0,2.0,58,0.00,,---,0.01,VWS V14.01,2013-03-05 03:05:00,
2013-03-04 22:06:00,38.8,25.7,30.00,ESE,114,0.0,4.0,59,0.00,,---,0.01,VWS V14.01,2013-03-05 03:06:00,
2013-03-04 22:07:00,38.8,25.7,30.00,SE,124,0.0,5.0,59,0.00,,---,0.01,VWS V14.01,2013-03-05 03:07:00,
2013-03-04 22:08:00,38.8,26.1,30.00,SE,144,2.0,7.0,60,0.00,,---,0.01,VWS V14.01,2013-03-05 03:08:00,
2013-03-04 22:09:00,38.8,25.7,30.00,SE,143,0.0,2.0,59,0.00,,---,0.01,VWS V14.01,2013-03-05 03:09:00,
2013-03-04 22:10:00,39.2,25.7,30.01,SE,139,4.0,4.0,58,0.00,,---,0.01,VWS V14.01,2013-03-05 03:10:00,
2013-03-04 22:11:00,38.8,25.7,30.00,ESE,121,0.0,4.0,59,0.00,,---,0.01,VWS V14.01,2013-03-05 03:11:00,
2013-03-04 22:12:00,38.8,26.1,30.00,ESE,121,0.0,0.0,60,0.00,,---,0.01,VWS V14.01,2013-03-05 03:12:00,
2013-03-04 22:13:00,38.8,26.1,30.00,ESE,113,0.0,1.0,60,0.00,,---,0.01,VWS V14.01,2013-03-05 03:13:00,
2013-03-04 22:14:00,38.8,26.1,30.00,ESE,113,0.0,0.0,60,0.00,,---,0.01,VWS V14.01,2013-03-05 03:14:00,
2013-03-04 22:15:00,39.1,25.6,30.00,SE,130,1.0,2.0,58,0.00,,---,0.01,VWS V14.01,2013-03-05 03:15:00,
2013-03-04 22:17:00,38.8,25.7,30.00,SE,126,2.0,6.0,59,0.00,,---,0.01,VWS V14.01,2013-03-05 03:17:00,
2013-03-04 22:18:00,38.8,25.7,30.00,SE,124,0.0,5.0,59,0.00,,---,0.01,VWS V14.01,2013-03-05 03:18:00,
2013-03-04 22:19:00,38.8,25.7,30.00,ESE,111,1.0,1.0,59,0.00,,---,0.01,VWS V14.01,2013-03-05 03:19:00,
2013-03-04 22:20:00,39.1,25.6,30.01,SE,132,4.0,4.0,58,0.00,,---,0.01,VWS V14.01,2013-03-05 03:20:00,
2013-03-04 22:21:00,38.9,25.8,30.00,SE,141,0.0,4.0,59,0.00,,---,0.01,VWS V14.01,2013-03-05 03:21:00,
2013-03-04 22:22:00,38.8,25.7,30.00,ESE,123,0.0,1.0,59,0.00,,---,0.01,VWS V14.01,2013-03-05 03:22:00,
2013-03-04 22:23:00,38.9,25.8,30.00,SE,134,2.0,2.0,59,0.00,,---,0.01,VWS V14.01,2013-03-05 03:23:00,
2013-03-04 22:24:00,38.9,25.8,30.00,SE,126,0.0,4.0,59,0.00,,---,0.01,VWS V14.01,2013-03-05 03:24:00,
2013-03-04 22:25:00,39.0,25.5,30.00,SE,130,0.0,2.0,58,0.00,,---,0.01,VWS V14.01,2013-03-05 03:25:00,
2013-03-04 22:26:00,38.9,25.8,30.00,East,84,0.0,1.0,59,0.00,,---,0.01,VWS V14.01,2013-03-05 03:26:00,
2013-03-04 22:27:00,38.9,25.8,29.99,East,90,1.0,4.0,59,0.00,,---,0.01,VWS V14.01,2013-03-05 03:27:00,
2013-03-04 22:28:00,38.9,25.8,30.00,ESE,106,2.0,2.0,59,0.00,,---,0.01,VWS V14.01,2013-03-05 03:28:00,
2013-03-04 22:29:00,38.9,25.8,30.00,SSE,158,0.0,4.0,59,0.00,,---,0.01,VWS V14.01,2013-03-05 03:29:00,
2013-03-04 22:30:00,39.0,25.5,30.01,SSE,153,0.0,0.0,58,0.00,,---,0.01,VWS V14.01,2013-03-05 03:30:00,
2013-03-04 22:31:00,38.9,25.8,29.99,SE,146,2.0,6.0,59,0.00,,---,0.01,VWS V14.01,2013-03-05 03:31:00,
2013-03-04 22:32:00,38.9,25.8,30.00,ENE,78,0.0,2.0,59,0.00,,---,0.01,VWS V14.01,2013-03-05 03:32:00,
2013-03-04 22:33:00,38.9,25.8,30.00,East,82,0.0,1.0,59,0.00,,---,0.01,VWS V14.01,2013-03-05 03:33:00,
2013-03-04 22:34:00,38.9,25.8,30.00,ESE,117,1.0,2.0,59,0.00,,---,0.01,VWS V14.01,2013-03-05 03:34:00,
2013-03-04 22:35:00,38.9,25.4,30.00,SE,138,0.0,7.0,58,0.00,,---,0.01,VWS V14.01,2013-03-05 03:35:00,
2013-03-04 22:36:00,38.9,25.8,30.00,ESE,111,0.0,1.0,59,0.00,,---,0.01,VWS V14.01,2013-03-05 03:36:00,
2013-03-04 22:37:00,38.9,25.8,30.00,ESE,112,0.0,1.0,59,0.00,,---,0.01,VWS V14.01,2013-03-05 03:37:00,
2013-03-04 22:38:00,38.9,25.8,30.00,ESE,113,0.0,0.0,59,0.00,,---,0.01,VWS V14.01,2013-03-05 03:38:00,
2013-03-04 22:39:00,38.9,25.4,30.00,ESE,117,1.0,4.0,58,0.00,,---,0.01,VWS V14.01,2013-03-05 03:39:00,
2013-03-04 22:40:00,38.9,25.8,30.00,SE,129,0.0,5.0,59,0.00,,---,0.01,VWS V14.01,2013-03-05 03:40:00,
2013-03-04 22:41:00,38.9,25.8,30.00,ESE,117,4.0,4.0,59,0.00,,---,0.01,VWS V14.01,2013-03-05 03:41:00,
2013-03-04 22:42:00,38.9,25.4,30.00,ESE,121,0.0,4.0,58,0.00,,---,0.01,VWS V14.01,2013-03-05 03:42:00,
2013-03-04 22:43:00,39.0,25.9,30.00,ESE,105,1.0,4.0,59,0.00,,---,0.01,VWS V14.01,2013-03-05 03:43:00,
2013-03-04 22:44:00,39.0,25.5,30.00,SE,126,4.0,5.0,58,0.00,,---,0.01,VWS V14.01,2013-03-05 03:44:00,
2013-03-04 22:45:00,38.9,25.8,30.00,East,101,0.0,1.0,59,0.00,,---,0.01,VWS V14.01,2013-03-05 03:45:00,
2013-03-04 22:46:00,39.0,25.9,30.00,SE,134,0.0,4.0,59,0.00,,---,0.01,VWS V14.01,2013-03-05 03:46:00,
2013-03-04 22:47:00,38.9,25.8,29.99,SE,134,0.0,2.0,59,0.00,,---,0.01,VWS V14.01,2013-03-05 03:47:00,
2013-03-04 22:48:00,38.9,25.8,29.99,SE,134,2.0,2.0,59,0.00,,---,0.01,VWS V14.01,2013-03-05 03:48:00,
2013-03-04 22:49:00,38.9,25.8,29.99,SE,142,0.0,2.0,59,0.00,,---,0.01,VWS V14.01,2013-03-05 03:49:00,
2013-03-04 22:50:00,38.8,25.7,30.00,ENE,72,0.0,1.0,59,0.00,,---,0.01,VWS V14.01,2013-03-05 03:50:00,
2013-03-04 22:51:00,38.9,25.8,29.99,SE,131,4.0,4.0,59,0.00,,---,0.01,VWS V14.01,2013-03-05 03:51:00,
2013-03-04 22:52:00,38.8,25.7,29.99,SSE,153,0.0,4.0,59,0.00,,---,0.01,VWS V14.01,2013-03-05 03:52:00,
2013-03-04 22:54:00,38.8,25.7,29.99,SE,132,4.0,5.0,59,0.00,,---,0.01,VWS V14.01,2013-03-05 03:54:00,
2013-03-04 22:55:00,38.8,25.7,30.00,SE,136,0.0,1.0,59,0.00,,---,0.01,VWS V14.01,2013-03-05 03:55:00,
2013-03-04 22:56:00,38.8,25.7,29.99,SE,140,2.0,6.0,59,0.00,,---,0.01,VWS V14.01,2013-03-05 03:56:00,
2013-03-04 22:57:00,38.8,25.7,29.99,SSE,150,4.0,6.0,59,0.00,,---,0.01,VWS V14.01,2013-03-05 03:57:00,
2013-03-04 22:58:00,38.8,25.7,29.99,SE,135,0.0,5.0,59,0.00,,---,0.01,VWS V14.01,2013-03-05 03:58:00,
2013-03-04 22:59:00,38.8,25.7,29.99,SE,133,4.0,4.0,59,0.00,,---,0.01,VWS V14.01,2013-03-05 03:59:00,
2013-03-04 23:00:00,38.8,26.1,30.00,SE,124,0.0,2.0,60,0.00,,---,0.01,VWS V14.01,2013-03-05 04:00:00,
2013-03-04 23:01:00,38.8,25.7,29.99,SSE,157,0.0,6.0,59,0.00,,---,0.00,VWS V14.01,2013-03-05 04:01:00,
2013-03-04 23:02:00,38.8,25.7,29.99,SSE,156,0.0,2.0,59,0.00,,---,0.00,VWS V14.01,2013-03-05 04:02:00,
2013-03-04 23:03:00,38.8,25.7,29.99,SE,138,0.0,2.0,59,0.00,,---,0.00,VWS V14.01,2013-03-05 04:03:00,
2013-03-04 23:04:00,38.8,25.7,29.99,SE,126,0.0,4.0,59,0.00,,---,0.00,VWS V14.01,2013-03-05 04:04:00,
2013-03-04 23:05:00,38.8,25.7,30.00,ESE,114,0.0,4.0,59,0.00,,---,0.01,VWS V14.01,2013-03-05 04:05:00,
2013-03-04 23:06:00,38.8,25.7,29.99,SE,135,0.0,2.0,59,0.00,,---,0.00,VWS V14.01,2013-03-05 04:06:00,
2013-03-04 23:07:00,38.8,25.7,29.99,ESE,107,0.0,2.0,59,0.00,,---,0.00,VWS V14.01,2013-03-05 04:07:00,
2013-03-04 23:08:00,38.8,25.7,29.99,SE,130,2.0,4.0,59,0.00,,---,0.00,VWS V14.01,2013-03-05 04:08:00,
2013-03-04 23:09:00,38.8,26.9,29.99,ESE,117,1.0,2.0,62,0.00,,---,0.00,VWS V14.01,2013-03-05 04:09:00,
2013-03-04 23:10:00,38.8,25.7,30.00,ESE,121,0.0,4.0,59,0.00,,---,0.01,VWS V14.01,2013-03-05 04:10:00,
2013-03-04 23:11:00,38.8,25.7,29.99,ESE,123,1.0,4.0,59,0.00,,---,0.00,VWS V14.01,2013-03-05 04:11:00,
2013-03-04 23:12:00,38.7,25.6,29.98,ESE,108,1.0,7.0,59,0.00,,---,0.00,VWS V14.01,2013-03-05 04:12:00,
2013-03-04 23:13:00,38.7,25.2,29.98,SE,135,1.0,4.0,58,0.00,,---,0.00,VWS V14.01,2013-03-05 04:13:00,
2013-03-04 23:14:00,38.8,25.3,29.98,SE,144,1.0,4.0,58,0.00,,---,0.00,VWS V14.01,2013-03-05 04:14:00,
2013-03-04 23:15:00,38.8,25.7,30.00,SE,126,0.0,6.0,59,0.00,,---,0.01,VWS V14.01,2013-03-05 04:15:00,
2013-03-04 23:16:00,38.8,25.3,29.98,ESE,121,0.0,4.0,58,0.00,,---,0.00,VWS V14.01,2013-03-05 04:16:00,
2013-03-04 23:17:00,38.8,25.7,29.98,SE,126,0.0,0.0,59,0.00,,---,0.00,VWS V14.01,2013-03-05 04:17:00,
2013-03-04 23:18:00,38.8,25.7,29.98,SE,130,4.0,4.0,59,0.00,,---,0.00,VWS V14.01,2013-03-05 04:18:00,
2013-03-04 23:19:00,38.8,25.7,29.98,East,92,0.0,4.0,59,0.00,,---,0.00,VWS V14.01,2013-03-05 04:19:00,
2013-03-04 23:20:00,38.9,25.8,30.00,SE,141,0.0,4.0,59,0.00,,---,0.01,VWS V14.01,2013-03-05 04:20:00,
2013-03-04 23:21:00,38.7,25.6,29.98,ESE,104,0.0,4.0,59,0.00,,---,0.00,VWS V14.01,2013-03-05 04:21:00,
2013-03-04 23:22:00,38.8,25.7,29.98,East,98,5.0,8.0,59,0.00,,---,0.00,VWS V14.01,2013-03-05 04:22:00,
2013-03-04 23:23:00,38.8,25.3,29.98,ESE,123,1.0,5.0,58,0.00,,---,0.00,VWS V14.01,2013-03-05 04:23:00,
2013-03-04 23:24:00,38.7,26.8,29.98,ESE,122,2.0,4.0,62,0.00,,---,0.00,VWS V14.01,2013-03-05 04:24:00,
2013-03-04 23:25:00,38.9,25.8,30.00,East,84,0.0,1.0,59,0.00,,---,0.01,VWS V14.01,2013-03-05 04:25:00,
2013-03-04 23:26:00,38.8,25.3,29.98,ESE,106,4.0,5.0,58,0.00,,---,0.00,VWS V14.01,2013-03-05 04:26:00,
2013-03-04 23:27:00,38.8,26.9,29.98,ESE,117,0.0,5.0,62,0.00,,---,0.00,VWS V14.01,2013-03-05 04:27:00,
2013-03-04 23:28:00,38.8,25.7,29.98,ESE,116,0.0,2.0,59,0.00,,---,0.00,VWS V14.01,2013-03-05 04:28:00,
2013-03-04 23:29:00,38.8,25.7,29.98,ESE,106,0.0,0.0,59,0.00,,---,0.00,VWS V14.01,2013-03-05 04:29:00,
2013-03-04 23:30:00,38.9,25.8,29.99,SE,146,2.0,6.0,59,0.00,,---,0.01,VWS V14.01,2013-03-05 04:30:00,
2013-03-04 23:31:00,38.7,25.6,29.98,ESE,117,4.0,6.0,59,0.00,,---,0.00,VWS V14.01,2013-03-05 04:31:00,
2013-03-04 23:32:00,38.7,26.0,29.98,SE,138,2.0,5.0,60,0.00,,---,0.00,VWS V14.01,2013-03-05 04:32:00,
2013-03-04 23:33:00,38.7,26.0,29.98,ESE,105,2.0,5.0,60,0.00,,---,0.00,VWS V14.01,2013-03-05 04:33:00,
2013-03-04 23:34:00,38.7,26.0,29.98,SE,138,0.0,4.0,60,0.00,,---,0.00,VWS V14.01,2013-03-05 04:34:00,
2013-03-04 23:35:00,38.9,25.8,30.00,ESE,111,0.0,1.0,59,0.00,,---,0.01,VWS V14.01,2013-03-05 04:35:00,
2013-03-04 23:36:00,38.7,26.0,29.98,SE,127,2.0,5.0,60,0.00,,---,0.00,VWS V14.01,2013-03-05 04:36:00,
2013-03-04 23:37:00,38.7,26.0,29.98,South,177,5.0,5.0,60,0.00,,---,0.00,VWS V14.01,2013-03-05 04:37:00,
2013-03-04 23:38:00,38.6,25.9,29.98,SE,127,0.0,5.0,60,0.00,,---,0.00,VWS V14.01,2013-03-05 04:38:00,
2013-03-04 23:39:00,38.6,25.9,29.98,ESE,102,0.0,4.0,60,0.00,,---,0.00,VWS V14.01,2013-03-05 04:39:00,
2013-03-04 23:40:00,38.9,25.8,30.00,ESE,117,4.0,4.0,59,0.00,,---,0.01,VWS V14.01,2013-03-05 04:40:00,
2013-03-04 23:41:00,38.6,26.3,29.97,ESE,112,4.0,4.0,61,0.00,,---,0.00,VWS V14.01,2013-03-05 04:41:00,
2013-03-04 23:42:00,38.6,26.3,29.97,SE,146,1.0,4.0,61,0.00,,---,0.00,VWS V14.01,2013-03-05 04:42:00,
2013-03-04 23:43:00,38.6,26.3,29.97,ESE,105,4.0,6.0,61,0.00,,---,0.00,VWS V14.01,2013-03-05 04:43:00,
2013-03-04 23:44:00,38.6,26.3,29.97,ESE,119,4.0,5.0,61,0.00,,---,0.00,VWS V14.01,2013-03-05 04:44:00,
2013-03-04 23:45:00,39.0,25.9,30.00,SE,134,0.0,4.0,59,0.00,,---,0.01,VWS V14.01,2013-03-05 04:45:00,
2013-03-04 23:46:00,38.5,26.2,29.97,East,87,1.0,1.0,61,0.00,,---,0.00,VWS V14.01,2013-03-05 04:46:00,
2013-03-04 23:47:00,38.5,26.6,29.97,ESE,118,0.0,5.0,62,0.00,,---,0.00,VWS V14.01,2013-03-05 04:47:00,
2013-03-04 23:48:00,38.5,26.6,29.97,ESE,117,5.0,5.0,62,0.00,,---,0.00,VWS V14.01,2013-03-05 04:48:00,
2013-03-04 23:49:00,38.5,26.2,29.97,SSE,148,4.0,6.0,61,0.00,,---,0.00,VWS V14.01,2013-03-05 04:49:00,
2013-03-04 23:50:00,38.9,25.8,29.99,SE,131,4.0,4.0,59,0.00,,---,0.01,VWS V14.01,2013-03-05 04:50:00,
2013-03-04 23:51:00,38.4,26.1,29.97,ESE,122,2.0,7.0,61,0.00,,---,0.00,VWS V14.01,2013-03-05 04:51:00,
2013-03-04 23:52:00,38.4,26.1,29.97,ESE,106,1.0,6.0,61,0.00,,---,0.00,VWS V14.01,2013-03-05 04:52:00,
2013-03-04 23:53:00,38.4,26.1,29.96,ESE,105,0.0,2.0,61,0.00,,---,0.00,VWS V14.01,2013-03-05 04:53:00,
2013-03-04 23:54:00,38.4,26.1,29.96,ESE,115,4.0,5.0,61,0.00,,---,0.00,VWS V14.01,2013-03-05 04:54:00,
2013-03-04 23:55:00,38.8,25.7,29.99,SE,140,2.0,6.0,59,0.00,,---,0.01,VWS V14.01,2013-03-05 04:55:00,
2013-03-04 23:56:00,38.4,26.1,29.96,ESE,117,2.0,8.0,61,0.00,,---,0.00,VWS V14.01,2013-03-05 04:56:00,
2013-03-04 23:57:00,38.4,26.1,29.96,SE,132,4.0,7.0,61,0.00,,---,0.00,VWS V14.01,2013-03-05 04:57:00,
2013-03-04 23:58:00,38.4,26.1,29.96,ESE,115,2.0,5.0,61,0.00,,---,0.00,VWS V14.01,2013-03-05 04:58:00,
2013-03-04 23:59:00,38.4,26.1,29.96,ESE,121,4.0,4.0,61,0.00,,---,0.00,VWS V14.01,2013-03-05 04:59:00,